﻿<?xml version="1.0" encoding="utf-8"?><gpx creator="Garmin Desktop App" version="1.1" xsi:schemaLocation="http://www.topografix.com/GPX/1/1 http://www.topografix.com/GPX/1/1/gpx.xsd http://www.garmin.com/xmlschemas/WaypointExtension/v1 http://www8.garmin.com/xmlschemas/WaypointExtensionv1.xsd http://www.garmin.com/xmlschemas/TrackPointExtension/v1 http://www.garmin.com/xmlschemas/TrackPointExtensionv1.xsd http://www.garmin.com/xmlschemas/GpxExtensions/v3 http://www8.garmin.com/xmlschemas/GpxExtensionsv3.xsd http://www.garmin.com/xmlschemas/ActivityExtension/v1 http://www8.garmin.com/xmlschemas/ActivityExtensionv1.xsd http://www.garmin.com/xmlschemas/AdventuresExtensions/v1 http://www8.garmin.com/xmlschemas/AdventuresExtensionv1.xsd http://www.garmin.com/xmlschemas/PressureExtension/v1 http://www.garmin.com/xmlschemas/PressureExtensionv1.xsd http://www.garmin.com/xmlschemas/TripExtensions/v1 http://www.garmin.com/xmlschemas/TripExtensionsv1.xsd http://www.garmin.com/xmlschemas/TripMetaDataExtensions/v1 http://www.garmin.com/xmlschemas/TripMetaDataExtensionsv1.xsd http://www.garmin.com/xmlschemas/ViaPointTransportationModeExtensions/v1 http://www.garmin.com/xmlschemas/ViaPointTransportationModeExtensionsv1.xsd http://www.garmin.com/xmlschemas/CreationTimeExtension/v1 http://www.garmin.com/xmlschemas/CreationTimeExtensionsv1.xsd http://www.garmin.com/xmlschemas/AccelerationExtension/v1 http://www.garmin.com/xmlschemas/AccelerationExtensionv1.xsd http://www.garmin.com/xmlschemas/PowerExtension/v1 http://www.garmin.com/xmlschemas/PowerExtensionv1.xsd http://www.garmin.com/xmlschemas/VideoExtension/v1 http://www.garmin.com/xmlschemas/VideoExtensionv1.xsd" xmlns="http://www.topografix.com/GPX/1/1" xmlns:xsi="http://www.w3.org/2001/XMLSchema-instance" xmlns:wptx1="http://www.garmin.com/xmlschemas/WaypointExtension/v1" xmlns:gpxtrx="http://www.garmin.com/xmlschemas/GpxExtensions/v3" xmlns:gpxtpx="http://www.garmin.com/xmlschemas/TrackPointExtension/v1" xmlns:gpxx="http://www.garmin.com/xmlschemas/GpxExtensions/v3" xmlns:trp="http://www.garmin.com/xmlschemas/TripExtensions/v1" xmlns:adv="http://www.garmin.com/xmlschemas/AdventuresExtensions/v1" xmlns:prs="http://www.garmin.com/xmlschemas/PressureExtension/v1" xmlns:tmd="http://www.garmin.com/xmlschemas/TripMetaDataExtensions/v1" xmlns:vptm="http://www.garmin.com/xmlschemas/ViaPointTransportationModeExtensions/v1" xmlns:ctx="http://www.garmin.com/xmlschemas/CreationTimeExtension/v1" xmlns:gpxacc="http://www.garmin.com/xmlschemas/AccelerationExtension/v1" xmlns:gpxpx="http://www.garmin.com/xmlschemas/PowerExtension/v1" xmlns:vidx1="http://www.garmin.com/xmlschemas/VideoExtension/v1">

  <metadata>
    <link href="http://www.garmin.com">
      <text>Garmin International</text>
    </link>
    <time>2020-11-20T18:34:47Z</time>
    <bounds maxlat="51.413199724629521" maxlon="4.413219373673201" minlat="51.359142987057567" minlon="4.330841610208154" />
  </metadata>

  <trk>
    <name>zandvliet leeuw v vlaanderen lus 27 km</name>
    <extensions>
      <gpxx:TrackExtension>
        <gpxx:DisplayColor>Red</gpxx:DisplayColor>
      </gpxx:TrackExtension>
    </extensions>
    <trkseg>
      <trkpt lat="51.369757577776909" lon="4.331165235489607">
        <ele>-7.76</ele>
        <time>2020-11-20T09:48:52Z</time>
      </trkpt>
      <trkpt lat="51.369669567793608" lon="4.331417866051197">
        <ele>-7.77</ele>
        <time>2020-11-20T09:49:05Z</time>
      </trkpt>
      <trkpt lat="51.369721703231335" lon="4.331583073362708">
        <ele>-7.79</ele>
        <time>2020-11-20T09:49:14Z</time>
      </trkpt>
      <trkpt lat="51.369886239990592" lon="4.331688266247511">
        <ele>-7.8</ele>
        <time>2020-11-20T09:49:27Z</time>
      </trkpt>
      <trkpt lat="51.37002688832581" lon="4.331799326464534">
        <ele>-7.84</ele>
        <time>2020-11-20T09:49:40Z</time>
      </trkpt>
      <trkpt lat="51.370096709579229" lon="4.331853892654181">
        <ele>-7.87</ele>
        <time>2020-11-20T09:49:46Z</time>
      </trkpt>
      <trkpt lat="51.370134176686406" lon="4.331874847412109">
        <ele>-7.9</ele>
        <time>2020-11-20T09:49:49Z</time>
      </trkpt>
      <trkpt lat="51.370481103658676" lon="4.332129238173366">
        <ele>-8.140000000000001</ele>
        <time>2020-11-20T09:50:18Z</time>
      </trkpt>
      <trkpt lat="51.370629295706749" lon="4.332211129367352">
        <ele>-8.289999999999999</ele>
        <time>2020-11-20T09:50:30Z</time>
      </trkpt>
      <trkpt lat="51.370770782232285" lon="4.332319255918264">
        <ele>-8.460000000000001</ele>
        <time>2020-11-20T09:50:41Z</time>
      </trkpt>
      <trkpt lat="51.370918219909072" lon="4.332423275336623">
        <ele>-8.609999999999999</ele>
        <time>2020-11-20T09:50:52Z</time>
      </trkpt>
      <trkpt lat="51.3709323015064" lon="4.332468202337623">
        <ele>-8.65</ele>
        <time>2020-11-20T09:50:55Z</time>
      </trkpt>
      <trkpt lat="51.371035734191537" lon="4.332657046616077">
        <ele>-8.74</ele>
        <time>2020-11-20T09:51:02Z</time>
      </trkpt>
      <trkpt lat="51.371068172156811" lon="4.333288203924894">
        <ele>-8.18</ele>
        <time>2020-11-20T09:51:31Z</time>
      </trkpt>
      <trkpt lat="51.371222650632262" lon="4.333958756178618">
        <ele>-8.75</ele>
        <time>2020-11-20T09:52:03Z</time>
      </trkpt>
      <trkpt lat="51.371307140216231" lon="4.33434197679162">
        <ele>-9.09</ele>
        <time>2020-11-20T09:52:19Z</time>
      </trkpt>
      <trkpt lat="51.371425576508045" lon="4.334905995056033">
        <ele>-9.43</ele>
        <time>2020-11-20T09:52:37Z</time>
      </trkpt>
      <trkpt lat="51.371450470760465" lon="4.33517212048173">
        <ele>-9.640000000000001</ele>
        <time>2020-11-20T09:52:48Z</time>
      </trkpt>
      <trkpt lat="51.371493805199862" lon="4.335423074662685">
        <ele>-9.140000000000001</ele>
        <time>2020-11-20T09:53:01Z</time>
      </trkpt>
      <trkpt lat="51.371508222073317" lon="4.335577134042978">
        <ele>-9.310000000000001</ele>
        <time>2020-11-20T09:53:09Z</time>
      </trkpt>
      <trkpt lat="51.371510652825236" lon="4.335668329149485">
        <ele>-7.33</ele>
        <time>2020-11-20T09:53:12Z</time>
      </trkpt>
      <trkpt lat="51.371515849605203" lon="4.335778970271349">
        <ele>-7.47</ele>
        <time>2020-11-20T09:53:17Z</time>
      </trkpt>
      <trkpt lat="51.3715142570436" lon="4.335824819281697">
        <ele>-7.52</ele>
        <time>2020-11-20T09:53:19Z</time>
      </trkpt>
      <trkpt lat="51.371545856818557" lon="4.336036378517747">
        <ele>-7.83</ele>
        <time>2020-11-20T09:53:32Z</time>
      </trkpt>
      <trkpt lat="51.371583575382829" lon="4.336374336853623">
        <ele>-8.039999999999999</ele>
        <time>2020-11-20T09:53:40Z</time>
      </trkpt>
      <trkpt lat="51.371737215667963" lon="4.336305018514395">
        <ele>-8.529999999999999</ele>
        <time>2020-11-20T09:54:00Z</time>
      </trkpt>
      <trkpt lat="51.371987834572792" lon="4.336292026564479">
        <ele>-8.92</ele>
        <time>2020-11-20T09:54:16Z</time>
      </trkpt>
      <trkpt lat="51.37219000607729" lon="4.336240058764815">
        <ele>-9.17</ele>
        <time>2020-11-20T09:54:28Z</time>
      </trkpt>
      <trkpt lat="51.372489826753736" lon="4.336215332150459">
        <ele>-9.32</ele>
        <time>2020-11-20T09:54:38Z</time>
      </trkpt>
      <trkpt lat="51.373037667945027" lon="4.336067223921418">
        <ele>-9.49</ele>
        <time>2020-11-20T09:55:08Z</time>
      </trkpt>
      <trkpt lat="51.373094581067562" lon="4.336036797612906">
        <ele>-9.5</ele>
        <time>2020-11-20T09:55:11Z</time>
      </trkpt>
      <trkpt lat="51.373325753957033" lon="4.335943758487701">
        <ele>-9.470000000000001</ele>
        <time>2020-11-20T09:55:27Z</time>
      </trkpt>
      <trkpt lat="51.37354644946754" lon="4.335853485390544">
        <ele>-9.44</ele>
        <time>2020-11-20T09:55:41Z</time>
      </trkpt>
      <trkpt lat="51.373738059774041" lon="4.335806462913752">
        <ele>-9.369999999999999</ele>
        <time>2020-11-20T09:55:54Z</time>
      </trkpt>
      <trkpt lat="51.373916175216436" lon="4.335739575326443">
        <ele>-9.32</ele>
        <time>2020-11-20T09:56:09Z</time>
      </trkpt>
      <trkpt lat="51.374132931232452" lon="4.335617534816265">
        <ele>-9.199999999999999</ele>
        <time>2020-11-20T09:56:27Z</time>
      </trkpt>
      <trkpt lat="51.374215325340629" lon="4.335573948919773">
        <ele>-9.17</ele>
        <time>2020-11-20T09:56:33Z</time>
      </trkpt>
      <trkpt lat="51.37424424290657" lon="4.33555425144732">
        <ele>-11.539999999999999</ele>
        <time>2020-11-20T09:56:35Z</time>
      </trkpt>
      <trkpt lat="51.374725447967649" lon="4.33538175188005">
        <ele>-11.52</ele>
        <time>2020-11-20T09:57:12Z</time>
      </trkpt>
      <trkpt lat="51.37497472576797" lon="4.335348727181554">
        <ele>-11.619999999999999</ele>
        <time>2020-11-20T09:57:31Z</time>
      </trkpt>
      <trkpt lat="51.375118307769299" lon="4.335477473214269">
        <ele>-12.609999999999999</ele>
        <time>2020-11-20T09:57:46Z</time>
      </trkpt>
      <trkpt lat="51.374972797930241" lon="4.335650810971856">
        <ele>-12.720000000000001</ele>
        <time>2020-11-20T09:57:58Z</time>
      </trkpt>
      <trkpt lat="51.374846147373319" lon="4.335867399349809">
        <ele>-12.93</ele>
        <time>2020-11-20T09:58:15Z</time>
      </trkpt>
      <trkpt lat="51.374727543443441" lon="4.336075522005558">
        <ele>-13.140000000000001</ele>
        <time>2020-11-20T09:58:29Z</time>
      </trkpt>
      <trkpt lat="51.374572059139609" lon="4.336198233067989">
        <ele>-13.34</ele>
        <time>2020-11-20T09:58:43Z</time>
      </trkpt>
      <trkpt lat="51.374475751072168" lon="4.336315579712391">
        <ele>-13.44</ele>
        <time>2020-11-20T09:58:50Z</time>
      </trkpt>
      <trkpt lat="51.374328648671508" lon="4.336615316569805">
        <ele>-13.66</ele>
        <time>2020-11-20T09:59:05Z</time>
      </trkpt>
      <trkpt lat="51.374242398887873" lon="4.336708104237914">
        <ele>-11.41</ele>
        <time>2020-11-20T09:59:09Z</time>
      </trkpt>
      <trkpt lat="51.374288247898221" lon="4.337037345394492">
        <ele>-11.630000000000001</ele>
        <time>2020-11-20T09:59:24Z</time>
      </trkpt>
      <trkpt lat="51.374347507953644" lon="4.3374012876302">
        <ele>-11.83</ele>
        <time>2020-11-20T09:59:37Z</time>
      </trkpt>
      <trkpt lat="51.374409534037113" lon="4.337665569037199">
        <ele>-11.25</ele>
        <time>2020-11-20T09:59:52Z</time>
      </trkpt>
      <trkpt lat="51.374463513493538" lon="4.33797343634069">
        <ele>-10.630000000000001</ele>
        <time>2020-11-20T10:00:07Z</time>
      </trkpt>
      <trkpt lat="51.374468626454473" lon="4.338257582858205">
        <ele>-10.869999999999999</ele>
        <time>2020-11-20T10:00:22Z</time>
      </trkpt>
      <trkpt lat="51.374501064419746" lon="4.338624542579055">
        <ele>-11.140000000000001</ele>
        <time>2020-11-20T10:00:38Z</time>
      </trkpt>
      <trkpt lat="51.374557306990027" lon="4.339030561968684">
        <ele>-11.449999999999999</ele>
        <time>2020-11-20T10:00:55Z</time>
      </trkpt>
      <trkpt lat="51.374565772712231" lon="4.339089067652822">
        <ele>-11.49</ele>
        <time>2020-11-20T10:00:57Z</time>
      </trkpt>
      <trkpt lat="51.374567784368992" lon="4.33929325081408">
        <ele>-11.66</ele>
        <time>2020-11-20T10:01:05Z</time>
      </trkpt>
      <trkpt lat="51.374581782147288" lon="4.339442029595375">
        <ele>-14.67</ele>
        <time>2020-11-20T10:01:11Z</time>
      </trkpt>
      <trkpt lat="51.374707762151957" lon="4.340698476880789">
        <ele>-12.57</ele>
        <time>2020-11-20T10:02:39Z</time>
      </trkpt>
      <trkpt lat="51.375559447333217" lon="4.345605494454503">
        <ele>-13.81</ele>
        <time>2020-11-20T10:04:40Z</time>
      </trkpt>
      <trkpt lat="51.37557378038764" lon="4.345654947683215">
        <ele>-13.82</ele>
        <time>2020-11-20T10:04:41Z</time>
      </trkpt>
      <trkpt lat="51.375596076250076" lon="4.345695935189724">
        <ele>-13.84</ele>
        <time>2020-11-20T10:04:42Z</time>
      </trkpt>
      <trkpt lat="51.375614432618022" lon="4.345737006515265">
        <ele>-13.85</ele>
        <time>2020-11-20T10:04:43Z</time>
      </trkpt>
      <trkpt lat="51.375711997970939" lon="4.346267078071833">
        <ele>-14</ele>
        <time>2020-11-20T10:04:53Z</time>
      </trkpt>
      <trkpt lat="51.375716356560588" lon="4.346312256529927">
        <ele>-14.029999999999999</ele>
        <time>2020-11-20T10:04:54Z</time>
      </trkpt>
      <trkpt lat="51.375725576654077" lon="4.346356680616736">
        <ele>-14.029999999999999</ele>
        <time>2020-11-20T10:04:55Z</time>
      </trkpt>
      <trkpt lat="51.375730102881789" lon="4.346398841589689">
        <ele>-14.039999999999999</ele>
        <time>2020-11-20T10:04:56Z</time>
      </trkpt>
      <trkpt lat="51.375733874738216" lon="4.346429854631424">
        <ele>-14.06</ele>
        <time>2020-11-20T10:04:57Z</time>
      </trkpt>
      <trkpt lat="51.375814257189631" lon="4.346916759386659">
        <ele>-14.32</ele>
        <time>2020-11-20T10:05:09Z</time>
      </trkpt>
      <trkpt lat="51.375841330736876" lon="4.347144663333893">
        <ele>-14.42</ele>
        <time>2020-11-20T10:05:13Z</time>
      </trkpt>
      <trkpt lat="51.375883407890797" lon="4.347245749086142">
        <ele>-14.48</ele>
        <time>2020-11-20T10:05:15Z</time>
      </trkpt>
      <trkpt lat="51.375897992402315" lon="4.347317749634385">
        <ele>-14.5</ele>
        <time>2020-11-20T10:05:16Z</time>
      </trkpt>
      <trkpt lat="51.375943087041378" lon="4.34742352925241">
        <ele>-14.529999999999999</ele>
        <time>2020-11-20T10:05:17Z</time>
      </trkpt>
      <trkpt lat="51.375973513349891" lon="4.347645649686456">
        <ele>-14.640000000000001</ele>
        <time>2020-11-20T10:05:21Z</time>
      </trkpt>
      <trkpt lat="51.376040149480104" lon="4.347868859767914">
        <ele>-14.74</ele>
        <time>2020-11-20T10:05:25Z</time>
      </trkpt>
      <trkpt lat="51.376145090907812" lon="4.348445199429989">
        <ele>-14.970000000000001</ele>
        <time>2020-11-20T10:05:35Z</time>
      </trkpt>
      <trkpt lat="51.376290684565902" lon="4.349464690312743">
        <ele>-15.359999999999999</ele>
        <time>2020-11-20T10:05:54Z</time>
      </trkpt>
      <trkpt lat="51.376294540241361" lon="4.349508946761489">
        <ele>-15.380000000000001</ele>
        <time>2020-11-20T10:05:55Z</time>
      </trkpt>
      <trkpt lat="51.376325804740191" lon="4.349780101329088">
        <ele>-15.56</ele>
        <time>2020-11-20T10:06:06Z</time>
      </trkpt>
      <trkpt lat="51.376434015110135" lon="4.350191485136747">
        <ele>-16.629999999999999</ele>
        <time>2020-11-20T10:06:24Z</time>
      </trkpt>
      <trkpt lat="51.376459915190935" lon="4.350199867039919">
        <ele>-16.629999999999999</ele>
        <time>2020-11-20T10:06:25Z</time>
      </trkpt>
      <trkpt lat="51.376476595178246" lon="4.350193915888667">
        <ele>-16.640000000000001</ele>
        <time>2020-11-20T10:06:26Z</time>
      </trkpt>
      <trkpt lat="51.376655548810959" lon="4.350126776844263">
        <ele>-16.66</ele>
        <time>2020-11-20T10:06:38Z</time>
      </trkpt>
      <trkpt lat="51.376670803874731" lon="4.35011537745595">
        <ele>-16.66</ele>
        <time>2020-11-20T10:06:39Z</time>
      </trkpt>
      <trkpt lat="51.376853780820966" lon="4.349983111023903">
        <ele>-16.640000000000001</ele>
        <time>2020-11-20T10:06:54Z</time>
      </trkpt>
      <trkpt lat="51.376990741118789" lon="4.349851934239268">
        <ele>-16.600000000000001</ele>
        <time>2020-11-20T10:07:05Z</time>
      </trkpt>
      <trkpt lat="51.377059891819954" lon="4.349780604243279">
        <ele>-16.579999999999998</ele>
        <time>2020-11-20T10:07:11Z</time>
      </trkpt>
      <trkpt lat="51.377071877941489" lon="4.349762834608555">
        <ele>-16.559999999999999</ele>
        <time>2020-11-20T10:07:12Z</time>
      </trkpt>
      <trkpt lat="51.377084450796247" lon="4.349750597029924">
        <ele>-16.559999999999999</ele>
        <time>2020-11-20T10:07:13Z</time>
      </trkpt>
      <trkpt lat="51.377098532393575" lon="4.349737940356135">
        <ele>-16.550000000000001</ele>
        <time>2020-11-20T10:07:14Z</time>
      </trkpt>
      <trkpt lat="51.377294501289725" lon="4.349525207653642">
        <ele>-16.390000000000001</ele>
        <time>2020-11-20T10:07:33Z</time>
      </trkpt>
      <trkpt lat="51.377367759123445" lon="4.349443316459656">
        <ele>-16.34</ele>
        <time>2020-11-20T10:07:40Z</time>
      </trkpt>
      <trkpt lat="51.377382427453995" lon="4.349432336166501">
        <ele>-16.329999999999998</ele>
        <time>2020-11-20T10:07:41Z</time>
      </trkpt>
      <trkpt lat="51.377395754680037" lon="4.349419763311744">
        <ele>-16.329999999999998</ele>
        <time>2020-11-20T10:07:42Z</time>
      </trkpt>
      <trkpt lat="51.377406483516097" lon="4.349405933171511">
        <ele>-16.32</ele>
        <time>2020-11-20T10:07:43Z</time>
      </trkpt>
      <trkpt lat="51.377418804913759" lon="4.349394449964166">
        <ele>-16.309999999999999</ele>
        <time>2020-11-20T10:07:44Z</time>
      </trkpt>
      <trkpt lat="51.377432467415929" lon="4.349383134394884">
        <ele>-16.300000000000001</ele>
        <time>2020-11-20T10:07:45Z</time>
      </trkpt>
      <trkpt lat="51.377549646422267" lon="4.349244413897395">
        <ele>-16.18</ele>
        <time>2020-11-20T10:07:57Z</time>
      </trkpt>
      <trkpt lat="51.377693898975849" lon="4.34906336478889">
        <ele>-16.050000000000001</ele>
        <time>2020-11-20T10:08:10Z</time>
      </trkpt>
      <trkpt lat="51.377744860947132" lon="4.349040817469358">
        <ele>-16.010000000000002</ele>
        <time>2020-11-20T10:08:13Z</time>
      </trkpt>
      <trkpt lat="51.377770761027932" lon="4.349041320383549">
        <ele>-16.02</ele>
        <time>2020-11-20T10:08:15Z</time>
      </trkpt>
      <trkpt lat="51.377782495692372" lon="4.349055401980877">
        <ele>-16</ele>
        <time>2020-11-20T10:08:16Z</time>
      </trkpt>
      <trkpt lat="51.377810575067997" lon="4.349160427227616">
        <ele>-15.970000000000001</ele>
        <time>2020-11-20T10:08:23Z</time>
      </trkpt>
      <trkpt lat="51.377809401601553" lon="4.349201833829284">
        <ele>-15.94</ele>
        <time>2020-11-20T10:08:26Z</time>
      </trkpt>
      <trkpt lat="51.377824656665325" lon="4.349475586786866">
        <ele>-15.85</ele>
        <time>2020-11-20T10:08:41Z</time>
      </trkpt>
      <trkpt lat="51.377926832064986" lon="4.350160052999854">
        <ele>-15.779999999999999</ele>
        <time>2020-11-20T10:09:09Z</time>
      </trkpt>
      <trkpt lat="51.377928340807557" lon="4.350339425727725">
        <ele>-14.619999999999999</ele>
        <time>2020-11-20T10:09:17Z</time>
      </trkpt>
      <trkpt lat="51.377929178997874" lon="4.350370103493333">
        <ele>-14.630000000000001</ele>
        <time>2020-11-20T10:09:18Z</time>
      </trkpt>
      <trkpt lat="51.377927670255303" lon="4.350389465689659">
        <ele>-14.630000000000001</ele>
        <time>2020-11-20T10:09:19Z</time>
      </trkpt>
      <trkpt lat="51.377969076856971" lon="4.350831443443894">
        <ele>-14.57</ele>
        <time>2020-11-20T10:09:37Z</time>
      </trkpt>
      <trkpt lat="51.378139229491353" lon="4.351824782788754">
        <ele>-14.49</ele>
        <time>2020-11-20T10:10:26Z</time>
      </trkpt>
      <trkpt lat="51.37816546484828" lon="4.351953277364373">
        <ele>-14.4</ele>
        <time>2020-11-20T10:10:44Z</time>
      </trkpt>
      <trkpt lat="51.378163620829582" lon="4.351957468315959">
        <ele>-16.710000000000001</ele>
        <time>2020-11-20T10:10:46Z</time>
      </trkpt>
      <trkpt lat="51.378165800124407" lon="4.351955959573388">
        <ele>-14.34</ele>
        <time>2020-11-20T10:11:11Z</time>
      </trkpt>
      <trkpt lat="51.378158340230584" lon="4.351976243779063">
        <ele>-14.23</ele>
        <time>2020-11-20T10:11:37Z</time>
      </trkpt>
      <trkpt lat="51.378158088773489" lon="4.351979596540332">
        <ele>-14.15</ele>
        <time>2020-11-20T10:11:57Z</time>
      </trkpt>
      <trkpt lat="51.378160519525409" lon="4.351968700066209">
        <ele>-13.880000000000001</ele>
        <time>2020-11-20T10:12:49Z</time>
      </trkpt>
      <trkpt lat="51.378186671063304" lon="4.352109096944332">
        <ele>-13.69</ele>
        <time>2020-11-20T10:13:23Z</time>
      </trkpt>
      <trkpt lat="51.378199076279998" lon="4.35236600227654">
        <ele>-13.630000000000001</ele>
        <time>2020-11-20T10:13:38Z</time>
      </trkpt>
      <trkpt lat="51.378221455961466" lon="4.352868916466832">
        <ele>-13.57</ele>
        <time>2020-11-20T10:13:50Z</time>
      </trkpt>
      <trkpt lat="51.378390854224563" lon="4.352840417996049">
        <ele>-13.49</ele>
        <time>2020-11-20T10:14:08Z</time>
      </trkpt>
      <trkpt lat="51.378470733761787" lon="4.352848129346967">
        <ele>-13.470000000000001</ele>
        <time>2020-11-20T10:14:14Z</time>
      </trkpt>
      <trkpt lat="51.378484647721052" lon="4.352845447137952">
        <ele>-13.460000000000001</ele>
        <time>2020-11-20T10:14:15Z</time>
      </trkpt>
      <trkpt lat="51.378500489518046" lon="4.352847626432777">
        <ele>-13.460000000000001</ele>
        <time>2020-11-20T10:14:16Z</time>
      </trkpt>
      <trkpt lat="51.378514235839248" lon="4.352848967537284">
        <ele>-13.460000000000001</ele>
        <time>2020-11-20T10:14:17Z</time>
      </trkpt>
      <trkpt lat="51.378529155626893" lon="4.352850979194045">
        <ele>-13.460000000000001</ele>
        <time>2020-11-20T10:14:18Z</time>
      </trkpt>
      <trkpt lat="51.378542818129063" lon="4.352851649746299">
        <ele>-13.460000000000001</ele>
        <time>2020-11-20T10:14:19Z</time>
      </trkpt>
      <trkpt lat="51.378555307164788" lon="4.352851314470172">
        <ele>-13.449999999999999</ele>
        <time>2020-11-20T10:14:20Z</time>
      </trkpt>
      <trkpt lat="51.378569807857275" lon="4.352851146832109">
        <ele>-13.449999999999999</ele>
        <time>2020-11-20T10:14:21Z</time>
      </trkpt>
      <trkpt lat="51.378625379875302" lon="4.35286145657301">
        <ele>-15.789999999999999</ele>
        <time>2020-11-20T10:14:25Z</time>
      </trkpt>
      <trkpt lat="51.378635941073298" lon="4.352861037477851">
        <ele>-15.779999999999999</ele>
        <time>2020-11-20T10:14:26Z</time>
      </trkpt>
      <trkpt lat="51.379540096968412" lon="4.352725837379694">
        <ele>-15.73</ele>
        <time>2020-11-20T10:15:28Z</time>
      </trkpt>
      <trkpt lat="51.379554513841867" lon="4.352725083008409">
        <ele>-15.73</ele>
        <time>2020-11-20T10:15:29Z</time>
      </trkpt>
      <trkpt lat="51.37956976890564" lon="4.352723658084869">
        <ele>-15.720000000000001</ele>
        <time>2020-11-20T10:15:30Z</time>
      </trkpt>
      <trkpt lat="51.379584856331348" lon="4.352723574265838">
        <ele>-15.710000000000001</ele>
        <time>2020-11-20T10:15:31Z</time>
      </trkpt>
      <trkpt lat="51.379907559603453" lon="4.352665487676859">
        <ele>-15.720000000000001</ele>
        <time>2020-11-20T10:15:55Z</time>
      </trkpt>
      <trkpt lat="51.379964388906956" lon="4.352646209299564">
        <ele>-15.720000000000001</ele>
        <time>2020-11-20T10:16:00Z</time>
      </trkpt>
      <trkpt lat="51.379975201562047" lon="4.352638917043805">
        <ele>-15.73</ele>
        <time>2020-11-20T10:16:01Z</time>
      </trkpt>
      <trkpt lat="51.379988612607121" lon="4.352637492120266">
        <ele>-15.73</ele>
        <time>2020-11-20T10:16:02Z</time>
      </trkpt>
      <trkpt lat="51.380122303962708" lon="4.352644449099898">
        <ele>-15.779999999999999</ele>
        <time>2020-11-20T10:16:11Z</time>
      </trkpt>
      <trkpt lat="51.380139486864209" lon="4.352642269805074">
        <ele>-15.779999999999999</ele>
        <time>2020-11-20T10:16:12Z</time>
      </trkpt>
      <trkpt lat="51.380427153781056" lon="4.35250036418438">
        <ele>-15.800000000000001</ele>
        <time>2020-11-20T10:16:31Z</time>
      </trkpt>
      <trkpt lat="51.380550032481551" lon="4.352465411648154">
        <ele>-13.529999999999999</ele>
        <time>2020-11-20T10:16:39Z</time>
      </trkpt>
      <trkpt lat="51.380728734657168" lon="4.352434566244483">
        <ele>-13.5</ele>
        <time>2020-11-20T10:16:53Z</time>
      </trkpt>
      <trkpt lat="51.380860079079866" lon="4.352430542930961">
        <ele>-13.470000000000001</ele>
        <time>2020-11-20T10:17:04Z</time>
      </trkpt>
      <trkpt lat="51.380874747410417" lon="4.352431045845151">
        <ele>-13.460000000000001</ele>
        <time>2020-11-20T10:17:05Z</time>
      </trkpt>
      <trkpt lat="51.380890253931284" lon="4.352430123835802">
        <ele>-13.470000000000001</ele>
        <time>2020-11-20T10:17:06Z</time>
      </trkpt>
      <trkpt lat="51.380906766280532" lon="4.352425765246153">
        <ele>-13.460000000000001</ele>
        <time>2020-11-20T10:17:07Z</time>
      </trkpt>
      <trkpt lat="51.380921434611082" lon="4.352424591779709">
        <ele>-13.460000000000001</ele>
        <time>2020-11-20T10:17:08Z</time>
      </trkpt>
      <trkpt lat="51.380934007465839" lon="4.352420568466187">
        <ele>-13.460000000000001</ele>
        <time>2020-11-20T10:17:09Z</time>
      </trkpt>
      <trkpt lat="51.381355198100209" lon="4.352328283712268">
        <ele>-12.119999999999999</ele>
        <time>2020-11-20T10:17:30Z</time>
      </trkpt>
      <trkpt lat="51.381641272455454" lon="4.352269358932972">
        <ele>-12.09</ele>
        <time>2020-11-20T10:17:41Z</time>
      </trkpt>
      <trkpt lat="51.381686199456453" lon="4.352261312305927">
        <ele>-12.09</ele>
        <time>2020-11-20T10:17:43Z</time>
      </trkpt>
      <trkpt lat="51.381712267175317" lon="4.35226634144783">
        <ele>-12.109999999999999</ele>
        <time>2020-11-20T10:17:44Z</time>
      </trkpt>
      <trkpt lat="51.382463118061423" lon="4.352120999246836">
        <ele>-11.44</ele>
        <time>2020-11-20T10:18:10Z</time>
      </trkpt>
      <trkpt lat="51.382487341761589" lon="4.352126279845834">
        <ele>-10.449999999999999</ele>
        <time>2020-11-20T10:18:11Z</time>
      </trkpt>
      <trkpt lat="51.38307717628777" lon="4.351898040622473">
        <ele>-9.92</ele>
        <time>2020-11-20T10:18:31Z</time>
      </trkpt>
      <trkpt lat="51.383115481585264" lon="4.352119909599423">
        <ele>-7.96</ele>
        <time>2020-11-20T10:18:35Z</time>
      </trkpt>
      <trkpt lat="51.383129060268402" lon="4.352127704769373">
        <ele>-7.98</ele>
        <time>2020-11-20T10:18:36Z</time>
      </trkpt>
      <trkpt lat="51.383138699457049" lon="4.352134997025132">
        <ele>-8</ele>
        <time>2020-11-20T10:18:37Z</time>
      </trkpt>
      <trkpt lat="51.383152445778251" lon="4.352141115814447">
        <ele>-8.01</ele>
        <time>2020-11-20T10:18:38Z</time>
      </trkpt>
      <trkpt lat="51.38407152146101" lon="4.355749608948827">
        <ele>-14.529999999999999</ele>
        <time>2020-11-20T10:21:23Z</time>
      </trkpt>
      <trkpt lat="51.384163135662675" lon="4.356207009404898">
        <ele>-14.75</ele>
        <time>2020-11-20T10:21:38Z</time>
      </trkpt>
      <trkpt lat="51.384456250816584" lon="4.356586122885346">
        <ele>-13.859999999999999</ele>
        <time>2020-11-20T10:21:58Z</time>
      </trkpt>
      <trkpt lat="51.384705780074" lon="4.35703145340085">
        <ele>-14.640000000000001</ele>
        <time>2020-11-20T10:23:37Z</time>
      </trkpt>
      <trkpt lat="51.384820779785514" lon="4.35720001347363">
        <ele>-14.539999999999999</ele>
        <time>2020-11-20T10:23:52Z</time>
      </trkpt>
      <trkpt lat="51.384913986548781" lon="4.357341164723039">
        <ele>-14.43</ele>
        <time>2020-11-20T10:24:04Z</time>
      </trkpt>
      <trkpt lat="51.384985232725739" lon="4.357445519417524">
        <ele>-11.880000000000001</ele>
        <time>2020-11-20T10:24:12Z</time>
      </trkpt>
      <trkpt lat="51.385025046765804" lon="4.357501845806837">
        <ele>-11.859999999999999</ele>
        <time>2020-11-20T10:24:16Z</time>
      </trkpt>
      <trkpt lat="51.385074248537421" lon="4.35753914527595">
        <ele>-11.84</ele>
        <time>2020-11-20T10:24:19Z</time>
      </trkpt>
      <trkpt lat="51.385160498321056" lon="4.357466557994485">
        <ele>-11.77</ele>
        <time>2020-11-20T10:24:28Z</time>
      </trkpt>
      <trkpt lat="51.385350013151765" lon="4.357131365686655">
        <ele>-11.69</ele>
        <time>2020-11-20T10:24:51Z</time>
      </trkpt>
      <trkpt lat="51.38551932759583" lon="4.356821654364467">
        <ele>-11.699999999999999</ele>
        <time>2020-11-20T10:25:06Z</time>
      </trkpt>
      <trkpt lat="51.385715967044234" lon="4.356425190344453">
        <ele>-11</ele>
        <time>2020-11-20T10:25:28Z</time>
      </trkpt>
      <trkpt lat="51.385834068059921" lon="4.356241375207901">
        <ele>-11.02</ele>
        <time>2020-11-20T10:25:39Z</time>
      </trkpt>
      <trkpt lat="51.385840689763427" lon="4.356222432106733">
        <ele>-11.029999999999999</ele>
        <time>2020-11-20T10:25:40Z</time>
      </trkpt>
      <trkpt lat="51.385860051959753" lon="4.35617633163929">
        <ele>-11.029999999999999</ele>
        <time>2020-11-20T10:25:43Z</time>
      </trkpt>
      <trkpt lat="51.385890981182456" lon="4.356151940301061">
        <ele>-11.06</ele>
        <time>2020-11-20T10:25:46Z</time>
      </trkpt>
      <trkpt lat="51.386034647002816" lon="4.356102403253317">
        <ele>-11.119999999999999</ele>
        <time>2020-11-20T10:26:03Z</time>
      </trkpt>
      <trkpt lat="51.386120729148388" lon="4.356179097667337">
        <ele>-11.18</ele>
        <time>2020-11-20T10:26:12Z</time>
      </trkpt>
      <trkpt lat="51.386161465197802" lon="4.356212290003896">
        <ele>-13.640000000000001</ele>
        <time>2020-11-20T10:26:15Z</time>
      </trkpt>
      <trkpt lat="51.386239500716329" lon="4.356302479282022">
        <ele>-13.69</ele>
        <time>2020-11-20T10:26:21Z</time>
      </trkpt>
      <trkpt lat="51.386409150436521" lon="4.356497190892696">
        <ele>-13.83</ele>
        <time>2020-11-20T10:26:35Z</time>
      </trkpt>
      <trkpt lat="51.387564847245812" lon="4.358365098014474">
        <ele>-14.050000000000001</ele>
        <time>2020-11-20T10:28:17Z</time>
      </trkpt>
      <trkpt lat="51.387796606868505" lon="4.358822498470545">
        <ele>-14.49</ele>
        <time>2020-11-20T10:28:31Z</time>
      </trkpt>
      <trkpt lat="51.389294285327196" lon="4.361035404726863">
        <ele>-16.210000000000001</ele>
        <time>2020-11-20T10:29:20Z</time>
      </trkpt>
      <trkpt lat="51.389423366636038" lon="4.361372692510486">
        <ele>-16.77</ele>
        <time>2020-11-20T10:29:36Z</time>
      </trkpt>
      <trkpt lat="51.389574073255062" lon="4.361639823764563">
        <ele>-17.359999999999999</ele>
        <time>2020-11-20T10:29:56Z</time>
      </trkpt>
      <trkpt lat="51.389738526195288" lon="4.362087501212955">
        <ele>-17.77</ele>
        <time>2020-11-20T10:30:12Z</time>
      </trkpt>
      <trkpt lat="51.389835923910141" lon="4.362434763461351">
        <ele>-18.120000000000001</ele>
        <time>2020-11-20T10:30:31Z</time>
      </trkpt>
      <trkpt lat="51.389860399067402" lon="4.362547248601914">
        <ele>-18.170000000000002</ele>
        <time>2020-11-20T10:30:36Z</time>
      </trkpt>
      <trkpt lat="51.389867691323161" lon="4.362562587484717">
        <ele>-18.18</ele>
        <time>2020-11-20T10:30:37Z</time>
      </trkpt>
      <trkpt lat="51.38995754532516" lon="4.362907838076353">
        <ele>-17.420000000000002</ele>
        <time>2020-11-20T10:30:55Z</time>
      </trkpt>
      <trkpt lat="51.390060475096107" lon="4.363168096169829">
        <ele>-17.530000000000001</ele>
        <time>2020-11-20T10:31:11Z</time>
      </trkpt>
      <trkpt lat="51.390215456485748" lon="4.363578977063298">
        <ele>-17.719999999999999</ele>
        <time>2020-11-20T10:31:30Z</time>
      </trkpt>
      <trkpt lat="51.390298940241337" lon="4.363796906545758">
        <ele>-17.77</ele>
        <time>2020-11-20T10:31:40Z</time>
      </trkpt>
      <trkpt lat="51.390309920534492" lon="4.363820878788829">
        <ele>-17.780000000000001</ele>
        <time>2020-11-20T10:31:41Z</time>
      </trkpt>
      <trkpt lat="51.390320900827646" lon="4.363844264298677">
        <ele>-17.780000000000001</ele>
        <time>2020-11-20T10:31:42Z</time>
      </trkpt>
      <trkpt lat="51.390509577468038" lon="4.364442145451903">
        <ele>-17.899999999999999</ele>
        <time>2020-11-20T10:32:11Z</time>
      </trkpt>
      <trkpt lat="51.3905995991081" lon="4.364700978621841">
        <ele>-17.960000000000001</ele>
        <time>2020-11-20T10:32:24Z</time>
      </trkpt>
      <trkpt lat="51.390699595212936" lon="4.364985711872578">
        <ele>-18.02</ele>
        <time>2020-11-20T10:32:38Z</time>
      </trkpt>
      <trkpt lat="51.39076329767704" lon="4.365119403228164">
        <ele>-18.050000000000001</ele>
        <time>2020-11-20T10:32:46Z</time>
      </trkpt>
      <trkpt lat="51.390772936865687" lon="4.365137424319983">
        <ele>-18.059999999999999</ele>
        <time>2020-11-20T10:32:47Z</time>
      </trkpt>
      <trkpt lat="51.390784168615937" lon="4.365162150934339">
        <ele>-18.079999999999998</ele>
        <time>2020-11-20T10:32:48Z</time>
      </trkpt>
      <trkpt lat="51.390795651823282" lon="4.365189811214805">
        <ele>-18.09</ele>
        <time>2020-11-20T10:32:49Z</time>
      </trkpt>
      <trkpt lat="51.390804704278708" lon="4.365214370191097">
        <ele>-18.09</ele>
        <time>2020-11-20T10:32:50Z</time>
      </trkpt>
      <trkpt lat="51.390812918543816" lon="4.365234905853868">
        <ele>-18.100000000000001</ele>
        <time>2020-11-20T10:32:51Z</time>
      </trkpt>
      <trkpt lat="51.390822809189558" lon="4.365259883925319">
        <ele>-18.109999999999999</ele>
        <time>2020-11-20T10:32:52Z</time>
      </trkpt>
      <trkpt lat="51.39088349416852" lon="4.365488374605775">
        <ele>-18.190000000000001</ele>
        <time>2020-11-20T10:33:02Z</time>
      </trkpt>
      <trkpt lat="51.390990531072021" lon="4.365763468667865">
        <ele>-18.300000000000001</ele>
        <time>2020-11-20T10:33:19Z</time>
      </trkpt>
      <trkpt lat="51.391087928786874" lon="4.366084663197398">
        <ele>-18.449999999999999</ele>
        <time>2020-11-20T10:33:35Z</time>
      </trkpt>
      <trkpt lat="51.391135202720761" lon="4.366329833865166">
        <ele>-18.57</ele>
        <time>2020-11-20T10:33:46Z</time>
      </trkpt>
      <trkpt lat="51.391248609870672" lon="4.366321619600058">
        <ele>-18.699999999999999</ele>
        <time>2020-11-20T10:34:04Z</time>
      </trkpt>
      <trkpt lat="51.391383642330766" lon="4.366235118359327">
        <ele>-18.82</ele>
        <time>2020-11-20T10:34:19Z</time>
      </trkpt>
      <trkpt lat="51.391939697787166" lon="4.365326352417469">
        <ele>-15.720000000000001</ele>
        <time>2020-11-20T10:35:15Z</time>
      </trkpt>
      <trkpt lat="51.39204204082489" lon="4.3651192355901">
        <ele>-15.140000000000001</ele>
        <time>2020-11-20T10:35:26Z</time>
      </trkpt>
      <trkpt lat="51.392150083556771" lon="4.365271786227822">
        <ele>-14.74</ele>
        <time>2020-11-20T10:35:39Z</time>
      </trkpt>
      <trkpt lat="51.392292240634561" lon="4.365929430350661">
        <ele>-16.16</ele>
        <time>2020-11-20T10:36:14Z</time>
      </trkpt>
      <trkpt lat="51.392794065177441" lon="4.367873445153236">
        <ele>-18.02</ele>
        <time>2020-11-20T10:37:41Z</time>
      </trkpt>
      <trkpt lat="51.393038649111986" lon="4.367855675518513">
        <ele>-17.27</ele>
        <time>2020-11-20T10:37:54Z</time>
      </trkpt>
      <trkpt lat="51.393197989091277" lon="4.36777101829648">
        <ele>-17.489999999999998</ele>
        <time>2020-11-20T10:38:11Z</time>
      </trkpt>
      <trkpt lat="51.393262278288603" lon="4.367731623351574">
        <ele>-16.91</ele>
        <time>2020-11-20T10:38:28Z</time>
      </trkpt>
      <trkpt lat="51.393357831984758" lon="4.367720726877451">
        <ele>-16.949999999999999</ele>
        <time>2020-11-20T10:38:32Z</time>
      </trkpt>
      <trkpt lat="51.393519770354033" lon="4.367623161524534">
        <ele>-17.140000000000001</ele>
        <time>2020-11-20T10:38:49Z</time>
      </trkpt>
      <trkpt lat="51.39368237927556" lon="4.367584437131882">
        <ele>-16.440000000000001</ele>
        <time>2020-11-20T10:39:04Z</time>
      </trkpt>
      <trkpt lat="51.393824955448508" lon="4.367515873163939">
        <ele>-15.699999999999999</ele>
        <time>2020-11-20T10:39:19Z</time>
      </trkpt>
      <trkpt lat="51.394130140542984" lon="4.367334907874465">
        <ele>-15.83</ele>
        <time>2020-11-20T10:39:41Z</time>
      </trkpt>
      <trkpt lat="51.394322924315929" lon="4.367057969793677">
        <ele>-14.94</ele>
        <time>2020-11-20T10:39:57Z</time>
      </trkpt>
      <trkpt lat="51.394138773903251" lon="4.366332767531276">
        <ele>-15.06</ele>
        <time>2020-11-20T10:40:35Z</time>
      </trkpt>
      <trkpt lat="51.394083788618445" lon="4.3659792188555">
        <ele>-15.109999999999999</ele>
        <time>2020-11-20T10:40:51Z</time>
      </trkpt>
      <trkpt lat="51.39408647082746" lon="4.365763468667865">
        <ele>-15.119999999999999</ele>
        <time>2020-11-20T10:40:56Z</time>
      </trkpt>
      <trkpt lat="51.394223934039474" lon="4.365836810320616">
        <ele>-17.84</ele>
        <time>2020-11-20T10:41:07Z</time>
      </trkpt>
      <trkpt lat="51.3948062248528" lon="4.365755757316947">
        <ele>-17.82</ele>
        <time>2020-11-20T10:41:39Z</time>
      </trkpt>
      <trkpt lat="51.395121132954955" lon="4.365699766203761">
        <ele>-17.850000000000001</ele>
        <time>2020-11-20T10:41:50Z</time>
      </trkpt>
      <trkpt lat="51.395487757399678" lon="4.365613181143999">
        <ele>-17.879999999999999</ele>
        <time>2020-11-20T10:42:00Z</time>
      </trkpt>
      <trkpt lat="51.395746506750584" lon="4.36551745980978">
        <ele>-17.920000000000002</ele>
        <time>2020-11-20T10:42:15Z</time>
      </trkpt>
      <trkpt lat="51.395881036296487" lon="4.365857429802418">
        <ele>-17.920000000000002</ele>
        <time>2020-11-20T10:42:16Z</time>
      </trkpt>
      <trkpt lat="51.395918503403664" lon="4.365853657945991">
        <ele>-17.920000000000002</ele>
        <time>2020-11-20T10:42:17Z</time>
      </trkpt>
      <trkpt lat="51.395954713225365" lon="4.36584041453898">
        <ele>-17.920000000000002</ele>
        <time>2020-11-20T10:42:18Z</time>
      </trkpt>
      <trkpt lat="51.39599209651351" lon="4.365828176960349">
        <ele>-17.93</ele>
        <time>2020-11-20T10:42:19Z</time>
      </trkpt>
      <trkpt lat="51.396018331870437" lon="4.365828344598413">
        <ele>-17.920000000000002</ele>
        <time>2020-11-20T10:42:20Z</time>
      </trkpt>
      <trkpt lat="51.396096032112837" lon="4.365825075656176">
        <ele>-15.449999999999999</ele>
        <time>2020-11-20T10:42:22Z</time>
      </trkpt>
      <trkpt lat="51.396241374313831" lon="4.365774029865861">
        <ele>-17.739999999999998</ele>
        <time>2020-11-20T10:42:26Z</time>
      </trkpt>
      <trkpt lat="51.396521916612983" lon="4.365633130073547">
        <ele>-17.719999999999999</ele>
        <time>2020-11-20T10:42:36Z</time>
      </trkpt>
      <trkpt lat="51.397279221564531" lon="4.365008845925331">
        <ele>-17.149999999999999</ele>
        <time>2020-11-20T10:43:10Z</time>
      </trkpt>
      <trkpt lat="51.397329261526465" lon="4.364650268107653">
        <ele>-17.219999999999999</ele>
        <time>2020-11-20T10:43:19Z</time>
      </trkpt>
      <trkpt lat="51.396711599081755" lon="4.361523818224669">
        <ele>-19.32</ele>
        <time>2020-11-20T10:44:36Z</time>
      </trkpt>
      <trkpt lat="51.396528035402298" lon="4.360686549916863">
        <ele>-18.170000000000002</ele>
        <time>2020-11-20T10:45:07Z</time>
      </trkpt>
      <trkpt lat="51.396434074267745" lon="4.360263515263796">
        <ele>-18.109999999999999</ele>
        <time>2020-11-20T10:45:23Z</time>
      </trkpt>
      <trkpt lat="51.396333323791623" lon="4.359939638525248">
        <ele>-18.039999999999999</ele>
        <time>2020-11-20T10:45:36Z</time>
      </trkpt>
      <trkpt lat="51.396326199173927" lon="4.359911726787686">
        <ele>-18.02</ele>
        <time>2020-11-20T10:45:37Z</time>
      </trkpt>
      <trkpt lat="51.396318906918168" lon="4.359887419268489">
        <ele>-18</ele>
        <time>2020-11-20T10:45:38Z</time>
      </trkpt>
      <trkpt lat="51.396316476166248" lon="4.35986545868218">
        <ele>-18.030000000000001</ele>
        <time>2020-11-20T10:45:39Z</time>
      </trkpt>
      <trkpt lat="51.396231148391962" lon="4.35958743095398">
        <ele>-17.920000000000002</ele>
        <time>2020-11-20T10:45:53Z</time>
      </trkpt>
      <trkpt lat="51.396124446764588" lon="4.359194235876203">
        <ele>-17.760000000000002</ele>
        <time>2020-11-20T10:46:09Z</time>
      </trkpt>
      <trkpt lat="51.396117489784956" lon="4.359158528968692">
        <ele>-17.739999999999998</ele>
        <time>2020-11-20T10:46:11Z</time>
      </trkpt>
      <trkpt lat="51.396105838939548" lon="4.359032465144992">
        <ele>-17.66</ele>
        <time>2020-11-20T10:46:17Z</time>
      </trkpt>
      <trkpt lat="51.396099803969264" lon="4.359007822349668">
        <ele>-17.649999999999999</ele>
        <time>2020-11-20T10:46:18Z</time>
      </trkpt>
      <trkpt lat="51.396093936637044" lon="4.358983095735312">
        <ele>-17.629999999999999</ele>
        <time>2020-11-20T10:46:19Z</time>
      </trkpt>
      <trkpt lat="51.396088823676109" lon="4.358961805701256">
        <ele>-17.620000000000001</ele>
        <time>2020-11-20T10:46:20Z</time>
      </trkpt>
      <trkpt lat="51.396083626896143" lon="4.358942275866866">
        <ele>-17.59</ele>
        <time>2020-11-20T10:46:21Z</time>
      </trkpt>
      <trkpt lat="51.396079435944557" lon="4.358924003317952">
        <ele>-17.579999999999998</ele>
        <time>2020-11-20T10:46:22Z</time>
      </trkpt>
      <trkpt lat="51.39607616700232" lon="4.358904054388404">
        <ele>-17.579999999999998</ele>
        <time>2020-11-20T10:46:23Z</time>
      </trkpt>
      <trkpt lat="51.396072562783957" lon="4.358880333602428">
        <ele>-17.57</ele>
        <time>2020-11-20T10:46:24Z</time>
      </trkpt>
      <trkpt lat="51.396069712936878" lon="4.358859630301595">
        <ele>-17.550000000000001</ele>
        <time>2020-11-20T10:46:25Z</time>
      </trkpt>
      <trkpt lat="51.396063677966595" lon="4.358835155144334">
        <ele>-17.52</ele>
        <time>2020-11-20T10:46:26Z</time>
      </trkpt>
      <trkpt lat="51.395992515608668" lon="4.358439445495606">
        <ele>-17.34</ele>
        <time>2020-11-20T10:46:42Z</time>
      </trkpt>
      <trkpt lat="51.395902158692479" lon="4.358052620664239">
        <ele>-17.010000000000002</ele>
        <time>2020-11-20T10:47:01Z</time>
      </trkpt>
      <trkpt lat="51.395835522562265" lon="4.357797810807824">
        <ele>-16.789999999999999</ele>
        <time>2020-11-20T10:47:15Z</time>
      </trkpt>
      <trkpt lat="51.395746590569615" lon="4.357446525245905">
        <ele>-15.720000000000001</ele>
        <time>2020-11-20T10:47:33Z</time>
      </trkpt>
      <trkpt lat="51.395589932799339" lon="4.356844117864966">
        <ele>-15.25</ele>
        <time>2020-11-20T10:48:01Z</time>
      </trkpt>
      <trkpt lat="51.395789422094822" lon="4.356712102890015">
        <ele>-15.029999999999999</ele>
        <time>2020-11-20T10:48:16Z</time>
      </trkpt>
      <trkpt lat="51.395897464826703" lon="4.356636833399534">
        <ele>-14.83</ele>
        <time>2020-11-20T10:48:25Z</time>
      </trkpt>
      <trkpt lat="51.395913138985634" lon="4.356628619134426">
        <ele>-14.81</ele>
        <time>2020-11-20T10:48:26Z</time>
      </trkpt>
      <trkpt lat="51.396134421229362" lon="4.356476068496704">
        <ele>-14.56</ele>
        <time>2020-11-20T10:48:42Z</time>
      </trkpt>
      <trkpt lat="51.396354027092457" lon="4.356308011338115">
        <ele>-14.289999999999999</ele>
        <time>2020-11-20T10:48:58Z</time>
      </trkpt>
      <trkpt lat="51.396564161404967" lon="4.356194185093045">
        <ele>-14.039999999999999</ele>
        <time>2020-11-20T10:49:14Z</time>
      </trkpt>
      <trkpt lat="51.396823078393936" lon="4.356066947802901">
        <ele>-13.69</ele>
        <time>2020-11-20T10:49:32Z</time>
      </trkpt>
      <trkpt lat="51.397045953199267" lon="4.355977512896061">
        <ele>-13.42</ele>
        <time>2020-11-20T10:49:48Z</time>
      </trkpt>
      <trkpt lat="51.397313168272376" lon="4.355909954756498">
        <ele>-13.15</ele>
        <time>2020-11-20T10:50:05Z</time>
      </trkpt>
      <trkpt lat="51.397455492988229" lon="4.355890089645982">
        <ele>-11.710000000000001</ele>
        <time>2020-11-20T10:50:14Z</time>
      </trkpt>
      <trkpt lat="51.397647522389889" lon="4.355855388566852">
        <ele>-11.529999999999999</ele>
        <time>2020-11-20T10:50:28Z</time>
      </trkpt>
      <trkpt lat="51.397733436897397" lon="4.355861758813262">
        <ele>-11.380000000000001</ele>
        <time>2020-11-20T10:50:35Z</time>
      </trkpt>
      <trkpt lat="51.397746345028281" lon="4.35586117208004">
        <ele>-11.359999999999999</ele>
        <time>2020-11-20T10:50:36Z</time>
      </trkpt>
      <trkpt lat="51.397762186825275" lon="4.355857819318771">
        <ele>-11.34</ele>
        <time>2020-11-20T10:50:37Z</time>
      </trkpt>
      <trkpt lat="51.397775849327445" lon="4.355859160423279">
        <ele>-11.33</ele>
        <time>2020-11-20T10:50:38Z</time>
      </trkpt>
      <trkpt lat="51.398267615586519" lon="4.355863183736801">
        <ele>-11.029999999999999</ele>
        <time>2020-11-20T10:51:15Z</time>
      </trkpt>
      <trkpt lat="51.398422513157129" lon="4.3558978009969">
        <ele>-10.99</ele>
        <time>2020-11-20T10:51:26Z</time>
      </trkpt>
      <trkpt lat="51.398444892838597" lon="4.355891346931458">
        <ele>-10.99</ele>
        <time>2020-11-20T10:51:27Z</time>
      </trkpt>
      <trkpt lat="51.398870861157775" lon="4.355955887585878">
        <ele>-10.890000000000001</ele>
        <time>2020-11-20T10:51:57Z</time>
      </trkpt>
      <trkpt lat="51.398884104564786" lon="4.355951193720102">
        <ele>-10.880000000000001</ele>
        <time>2020-11-20T10:51:58Z</time>
      </trkpt>
      <trkpt lat="51.39889701269567" lon="4.355952953919768">
        <ele>-10.880000000000001</ele>
        <time>2020-11-20T10:51:59Z</time>
      </trkpt>
      <trkpt lat="51.398939760401845" lon="4.355946918949485">
        <ele>-10.880000000000001</ele>
        <time>2020-11-20T10:52:02Z</time>
      </trkpt>
      <trkpt lat="51.398952752351761" lon="4.355944907292724">
        <ele>-10.880000000000001</ele>
        <time>2020-11-20T10:52:03Z</time>
      </trkpt>
      <trkpt lat="51.398968677967787" lon="4.355946332216263">
        <ele>-10.880000000000001</ele>
        <time>2020-11-20T10:52:04Z</time>
      </trkpt>
      <trkpt lat="51.398980412632227" lon="4.355949433520436">
        <ele>-10.869999999999999</ele>
        <time>2020-11-20T10:52:05Z</time>
      </trkpt>
      <trkpt lat="51.399007569998503" lon="4.355951864272356">
        <ele>-10.890000000000001</ele>
        <time>2020-11-20T10:52:07Z</time>
      </trkpt>
      <trkpt lat="51.399969393387437" lon="4.355989918112755">
        <ele>-10.59</ele>
        <time>2020-11-20T10:53:08Z</time>
      </trkpt>
      <trkpt lat="51.399987163022161" lon="4.35598430223763">
        <ele>-10.56</ele>
        <time>2020-11-20T10:53:09Z</time>
      </trkpt>
      <trkpt lat="51.400003926828504" lon="4.355980195105076">
        <ele>-10.57</ele>
        <time>2020-11-20T10:53:10Z</time>
      </trkpt>
      <trkpt lat="51.400113981217146" lon="4.355948595330119">
        <ele>-10.49</ele>
        <time>2020-11-20T10:53:17Z</time>
      </trkpt>
      <trkpt lat="51.400125548243523" lon="4.355943566188216">
        <ele>-10.48</ele>
        <time>2020-11-20T10:53:18Z</time>
      </trkpt>
      <trkpt lat="51.400139713659883" lon="4.355940883979201">
        <ele>-10.48</ele>
        <time>2020-11-20T10:53:19Z</time>
      </trkpt>
      <trkpt lat="51.400154465809464" lon="4.355935100466013">
        <ele>-10.470000000000001</ele>
        <time>2020-11-20T10:53:20Z</time>
      </trkpt>
      <trkpt lat="51.400169050320983" lon="4.355933172628284">
        <ele>-10.44</ele>
        <time>2020-11-20T10:53:21Z</time>
      </trkpt>
      <trkpt lat="51.400184137746692" lon="4.3559305742383">
        <ele>-10.449999999999999</ele>
        <time>2020-11-20T10:53:22Z</time>
      </trkpt>
      <trkpt lat="51.40020651742816" lon="4.355929400771856">
        <ele>-10.43</ele>
        <time>2020-11-20T10:53:23Z</time>
      </trkpt>
      <trkpt lat="51.400227304548025" lon="4.355927556753159">
        <ele>-10.42</ele>
        <time>2020-11-20T10:53:24Z</time>
      </trkpt>
      <trkpt lat="51.400358313694596" lon="4.355871984735131">
        <ele>-10.300000000000001</ele>
        <time>2020-11-20T10:53:36Z</time>
      </trkpt>
      <trkpt lat="51.400443473830819" lon="4.355860752984881">
        <ele>-10.26</ele>
        <time>2020-11-20T10:53:43Z</time>
      </trkpt>
      <trkpt lat="51.400497369468212" lon="4.35587340965867">
        <ele>-10.23</ele>
        <time>2020-11-20T10:53:46Z</time>
      </trkpt>
      <trkpt lat="51.400521509349346" lon="4.355876846238971">
        <ele>-10.220000000000001</ele>
        <time>2020-11-20T10:53:47Z</time>
      </trkpt>
      <trkpt lat="51.400534836575389" lon="4.355877600610256">
        <ele>-10.199999999999999</ele>
        <time>2020-11-20T10:53:48Z</time>
      </trkpt>
      <trkpt lat="51.400552773848176" lon="4.355878522619605">
        <ele>-10.199999999999999</ele>
        <time>2020-11-20T10:53:49Z</time>
      </trkpt>
      <trkpt lat="51.401295242831111" lon="4.355690013617277">
        <ele>-9.74</ele>
        <time>2020-11-20T10:54:45Z</time>
      </trkpt>
      <trkpt lat="51.401493055745959" lon="4.355650283396244">
        <ele>-9.67</ele>
        <time>2020-11-20T10:55:01Z</time>
      </trkpt>
      <trkpt lat="51.401707883924246" lon="4.355576941743493">
        <ele>-9.67</ele>
        <time>2020-11-20T10:55:24Z</time>
      </trkpt>
      <trkpt lat="51.402092278003693" lon="4.355449117720127">
        <ele>-9.789999999999999</ele>
        <time>2020-11-20T10:55:52Z</time>
      </trkpt>
      <trkpt lat="51.402124548330903" lon="4.355440065264702">
        <ele>-9.800000000000001</ele>
        <time>2020-11-20T10:55:54Z</time>
      </trkpt>
      <trkpt lat="51.4021419826895" lon="4.355431934818626">
        <ele>-9.810000000000001</ele>
        <time>2020-11-20T10:55:55Z</time>
      </trkpt>
      <trkpt lat="51.402903227135539" lon="4.355173017829657">
        <ele>-12.06</ele>
        <time>2020-11-20T10:56:43Z</time>
      </trkpt>
      <trkpt lat="51.403069021180272" lon="4.355109902098775">
        <ele>-12.029999999999999</ele>
        <time>2020-11-20T10:56:55Z</time>
      </trkpt>
      <trkpt lat="51.403216458857059" lon="4.355047456920147">
        <ele>-12.81</ele>
        <time>2020-11-20T10:57:07Z</time>
      </trkpt>
      <trkpt lat="51.403439082205296" lon="4.355011582374573">
        <ele>-12.75</ele>
        <time>2020-11-20T10:57:25Z</time>
      </trkpt>
      <trkpt lat="51.403735131025314" lon="4.354812344536185">
        <ele>-13.18</ele>
        <time>2020-11-20T10:58:31Z</time>
      </trkpt>
      <trkpt lat="51.403868151828647" lon="4.354779906570911">
        <ele>-13.07</ele>
        <time>2020-11-20T10:58:43Z</time>
      </trkpt>
      <trkpt lat="51.403869409114122" lon="4.354812512174249">
        <ele>-13.08</ele>
        <time>2020-11-20T10:58:45Z</time>
      </trkpt>
      <trkpt lat="51.403870163485408" lon="4.35501292347908">
        <ele>-13.050000000000001</ele>
        <time>2020-11-20T10:58:56Z</time>
      </trkpt>
      <trkpt lat="51.403868906199932" lon="4.355039494112134">
        <ele>-13.02</ele>
        <time>2020-11-20T10:58:57Z</time>
      </trkpt>
      <trkpt lat="51.403866056352854" lon="4.355070842429996">
        <ele>-13.029999999999999</ele>
        <time>2020-11-20T10:58:58Z</time>
      </trkpt>
      <trkpt lat="51.40386588871479" lon="4.355125492438674">
        <ele>-13.01</ele>
        <time>2020-11-20T10:59:00Z</time>
      </trkpt>
      <trkpt lat="51.403867146000266" lon="4.355293465778232">
        <ele>-12.91</ele>
        <time>2020-11-20T10:59:08Z</time>
      </trkpt>
      <trkpt lat="51.403872929513454" lon="4.355324059724808">
        <ele>-12.91</ele>
        <time>2020-11-20T10:59:09Z</time>
      </trkpt>
      <trkpt lat="51.403885586187243" lon="4.355439394712448">
        <ele>-12.869999999999999</ele>
        <time>2020-11-20T10:59:14Z</time>
      </trkpt>
      <trkpt lat="51.40388885512948" lon="4.355471832677722">
        <ele>-12.869999999999999</ele>
        <time>2020-11-20T10:59:15Z</time>
      </trkpt>
      <trkpt lat="51.403923807665706" lon="4.356012381613255">
        <ele>-12.789999999999999</ele>
        <time>2020-11-20T10:59:31Z</time>
      </trkpt>
      <trkpt lat="51.403618874028325" lon="4.359939889982343">
        <ele>-13.25</ele>
        <time>2020-11-20T11:00:25Z</time>
      </trkpt>
      <trkpt lat="51.403930597007275" lon="4.363725073635578">
        <ele>-14.210000000000001</ele>
        <time>2020-11-20T11:01:01Z</time>
      </trkpt>
      <trkpt lat="51.404383890330791" lon="4.36404325067997">
        <ele>-16.329999999999998</ele>
        <time>2020-11-20T11:01:11Z</time>
      </trkpt>
      <trkpt lat="51.404424291104078" lon="4.364098152145743">
        <ele>-16.329999999999998</ele>
        <time>2020-11-20T11:01:12Z</time>
      </trkpt>
      <trkpt lat="51.404474414885044" lon="4.364138469099999">
        <ele>-16.34</ele>
        <time>2020-11-20T11:01:13Z</time>
      </trkpt>
      <trkpt lat="51.404516492038965" lon="4.364168476313353">
        <ele>-16.359999999999999</ele>
        <time>2020-11-20T11:01:14Z</time>
      </trkpt>
      <trkpt lat="51.404590671882033" lon="4.364258330315352">
        <ele>-16.379999999999999</ele>
        <time>2020-11-20T11:01:16Z</time>
      </trkpt>
      <trkpt lat="51.404631827026606" lon="4.364309124648571">
        <ele>-16.420000000000002</ele>
        <time>2020-11-20T11:01:17Z</time>
      </trkpt>
      <trkpt lat="51.4055887889117" lon="4.36522132717073">
        <ele>-17.27</ele>
        <time>2020-11-20T11:01:35Z</time>
      </trkpt>
      <trkpt lat="51.405785512179136" lon="4.365393910557032">
        <ele>-17.27</ele>
        <time>2020-11-20T11:01:37Z</time>
      </trkpt>
      <trkpt lat="51.405847454443574" lon="4.365458618849516">
        <ele>-17.25</ele>
        <time>2020-11-20T11:01:38Z</time>
      </trkpt>
      <trkpt lat="51.406041495501995" lon="4.365996904671192">
        <ele>-17.219999999999999</ele>
        <time>2020-11-20T11:01:45Z</time>
      </trkpt>
      <trkpt lat="51.406561592593789" lon="4.367300374433398">
        <ele>-18.050000000000001</ele>
        <time>2020-11-20T11:02:01Z</time>
      </trkpt>
      <trkpt lat="51.406757645308971" lon="4.367728941142559">
        <ele>-17.859999999999999</ele>
        <time>2020-11-20T11:02:11Z</time>
      </trkpt>
      <trkpt lat="51.406854540109634" lon="4.368055919185281">
        <ele>-17.609999999999999</ele>
        <time>2020-11-20T11:02:25Z</time>
      </trkpt>
      <trkpt lat="51.406937520951033" lon="4.368327409029007">
        <ele>-17.41</ele>
        <time>2020-11-20T11:02:39Z</time>
      </trkpt>
      <trkpt lat="51.406999127939343" lon="4.368548775091767">
        <ele>-16.420000000000002</ele>
        <time>2020-11-20T11:02:53Z</time>
      </trkpt>
      <trkpt lat="51.407082946971059" lon="4.368934342637658">
        <ele>-16.129999999999999</ele>
        <time>2020-11-20T11:03:11Z</time>
      </trkpt>
      <trkpt lat="51.407220410183072" lon="4.369369363412261">
        <ele>-15.84</ele>
        <time>2020-11-20T11:03:31Z</time>
      </trkpt>
      <trkpt lat="51.407310599461198" lon="4.369575390592217">
        <ele>-15.699999999999999</ele>
        <time>2020-11-20T11:03:42Z</time>
      </trkpt>
      <trkpt lat="51.40739374794066" lon="4.36985157430172">
        <ele>-15.52</ele>
        <time>2020-11-20T11:03:55Z</time>
      </trkpt>
      <trkpt lat="51.407447392120957" lon="4.370054919272661">
        <ele>-15.43</ele>
        <time>2020-11-20T11:04:03Z</time>
      </trkpt>
      <trkpt lat="51.407453846186399" lon="4.370087943971157">
        <ele>-15.41</ele>
        <time>2020-11-20T11:04:04Z</time>
      </trkpt>
      <trkpt lat="51.407553590834141" lon="4.370443420484662">
        <ele>-15.210000000000001</ele>
        <time>2020-11-20T11:04:21Z</time>
      </trkpt>
      <trkpt lat="51.407684180885553" lon="4.370656739920378">
        <ele>-15.09</ele>
        <time>2020-11-20T11:04:34Z</time>
      </trkpt>
      <trkpt lat="51.407692981883883" lon="4.370669480413199">
        <ele>-14.16</ele>
        <time>2020-11-20T11:04:35Z</time>
      </trkpt>
      <trkpt lat="51.40770060941577" lon="4.370676102116704">
        <ele>-14.16</ele>
        <time>2020-11-20T11:04:36Z</time>
      </trkpt>
      <trkpt lat="51.408153651282191" lon="4.370528496801853">
        <ele>-13.91</ele>
        <time>2020-11-20T11:05:09Z</time>
      </trkpt>
      <trkpt lat="51.408392367884517" lon="4.370429674163461">
        <ele>-13.800000000000001</ele>
        <time>2020-11-20T11:05:23Z</time>
      </trkpt>
      <trkpt lat="51.408446012064815" lon="4.3704086355865">
        <ele>-13.779999999999999</ele>
        <time>2020-11-20T11:05:26Z</time>
      </trkpt>
      <trkpt lat="51.408521365374327" lon="4.370376616716385">
        <ele>-13.75</ele>
        <time>2020-11-20T11:05:31Z</time>
      </trkpt>
      <trkpt lat="51.408755639567971" lon="4.37029724009335">
        <ele>-13.59</ele>
        <time>2020-11-20T11:05:47Z</time>
      </trkpt>
      <trkpt lat="51.409077420830727" lon="4.370126416906714">
        <ele>-13.34</ele>
        <time>2020-11-20T11:06:06Z</time>
      </trkpt>
      <trkpt lat="51.409349413588643" lon="4.370003957301378">
        <ele>-13.02</ele>
        <time>2020-11-20T11:06:26Z</time>
      </trkpt>
      <trkpt lat="51.409547561779618" lon="4.369906643405557">
        <ele>-12.01</ele>
        <time>2020-11-20T11:06:41Z</time>
      </trkpt>
      <trkpt lat="51.409748308360577" lon="4.369756355881691">
        <ele>-11.76</ele>
        <time>2020-11-20T11:06:56Z</time>
      </trkpt>
      <trkpt lat="51.410032957792282" lon="4.369625514373183">
        <ele>-11.460000000000001</ele>
        <time>2020-11-20T11:07:15Z</time>
      </trkpt>
      <trkpt lat="51.410394469276071" lon="4.369548819959164">
        <ele>-10.34</ele>
        <time>2020-11-20T11:07:38Z</time>
      </trkpt>
      <trkpt lat="51.410658499225974" lon="4.369497103616595">
        <ele>-10.09</ele>
        <time>2020-11-20T11:07:57Z</time>
      </trkpt>
      <trkpt lat="51.410899059846997" lon="4.369450248777866">
        <ele>-9.859999999999999</ele>
        <time>2020-11-20T11:08:14Z</time>
      </trkpt>
      <trkpt lat="51.411132663488388" lon="4.369400208815932">
        <ele>-9.640000000000001</ele>
        <time>2020-11-20T11:08:30Z</time>
      </trkpt>
      <trkpt lat="51.411382192745805" lon="4.369337260723114">
        <ele>-9.4</ele>
        <time>2020-11-20T11:08:47Z</time>
      </trkpt>
      <trkpt lat="51.411627866327763" lon="4.369272468611598">
        <ele>-9.199999999999999</ele>
        <time>2020-11-20T11:09:04Z</time>
      </trkpt>
      <trkpt lat="51.411856357008219" lon="4.369217231869698">
        <ele>-8.99</ele>
        <time>2020-11-20T11:09:20Z</time>
      </trkpt>
      <trkpt lat="51.412121895700693" lon="4.369148667901754">
        <ele>-8.77</ele>
        <time>2020-11-20T11:09:39Z</time>
      </trkpt>
      <trkpt lat="51.412378214299679" lon="4.369083624333143">
        <ele>-8.59</ele>
        <time>2020-11-20T11:09:58Z</time>
      </trkpt>
      <trkpt lat="51.412633527070284" lon="4.369036266580224">
        <ele>-8.380000000000001</ele>
        <time>2020-11-20T11:10:15Z</time>
      </trkpt>
      <trkpt lat="51.412811810150743" lon="4.368985975161195">
        <ele>-8.25</ele>
        <time>2020-11-20T11:10:27Z</time>
      </trkpt>
      <trkpt lat="51.412951033562422" lon="4.369022939354181">
        <ele>-8.15</ele>
        <time>2020-11-20T11:10:37Z</time>
      </trkpt>
      <trkpt lat="51.413199724629521" lon="4.368988238275051">
        <ele>-8.050000000000001</ele>
        <time>2020-11-20T11:10:46Z</time>
      </trkpt>
      <trkpt lat="51.413101572543383" lon="4.369562566280365">
        <ele>-5.71</ele>
        <time>2020-11-20T11:13:52Z</time>
      </trkpt>
      <trkpt lat="51.413065697997808" lon="4.369790386408567">
        <ele>-5.55</ele>
        <time>2020-11-20T11:14:03Z</time>
      </trkpt>
      <trkpt lat="51.413063099607825" lon="4.369845539331436">
        <ele>-5.53</ele>
        <time>2020-11-20T11:14:05Z</time>
      </trkpt>
      <trkpt lat="51.413022531196475" lon="4.370134798809886">
        <ele>-5.45</ele>
        <time>2020-11-20T11:14:17Z</time>
      </trkpt>
      <trkpt lat="51.413005599752069" lon="4.370278296992183">
        <ele>-7.78</ele>
        <time>2020-11-20T11:14:24Z</time>
      </trkpt>
      <trkpt lat="51.412865957245231" lon="4.370830748230219">
        <ele>-4.91</ele>
        <time>2020-11-20T11:14:45Z</time>
      </trkpt>
      <trkpt lat="51.412828071042895" lon="4.371047168970108">
        <ele>-4.88</ele>
        <time>2020-11-20T11:14:53Z</time>
      </trkpt>
      <trkpt lat="51.412741485983133" lon="4.371664328500629">
        <ele>-4.86</ele>
        <time>2020-11-20T11:15:22Z</time>
      </trkpt>
      <trkpt lat="51.412641741335392" lon="4.372098762542009">
        <ele>-4.91</ele>
        <time>2020-11-20T11:15:42Z</time>
      </trkpt>
      <trkpt lat="51.412132037803531" lon="4.374635545536876">
        <ele>-5.57</ele>
        <time>2020-11-20T11:17:32Z</time>
      </trkpt>
      <trkpt lat="51.41193313524127" lon="4.37573759816587">
        <ele>-6.53</ele>
        <time>2020-11-20T11:18:23Z</time>
      </trkpt>
      <trkpt lat="51.410779198631644" lon="4.380471613258123">
        <ele>-12.779999999999999</ele>
        <time>2020-11-20T11:21:56Z</time>
      </trkpt>
      <trkpt lat="51.41070912592113" lon="4.380868580192328">
        <ele>-13</ele>
        <time>2020-11-20T11:22:11Z</time>
      </trkpt>
      <trkpt lat="51.40994343906641" lon="4.384494172409177">
        <ele>-14.789999999999999</ele>
        <time>2020-11-20T11:25:06Z</time>
      </trkpt>
      <trkpt lat="51.409874456003308" lon="4.384749904274941">
        <ele>-15.73</ele>
        <time>2020-11-20T11:25:19Z</time>
      </trkpt>
      <trkpt lat="51.409867079928517" lon="4.384808326140046">
        <ele>-15.720000000000001</ele>
        <time>2020-11-20T11:25:21Z</time>
      </trkpt>
      <trkpt lat="51.409815279766917" lon="4.385002283379436">
        <ele>-15.76</ele>
        <time>2020-11-20T11:25:28Z</time>
      </trkpt>
      <trkpt lat="51.409807987511158" lon="4.385051317512989">
        <ele>-15.77</ele>
        <time>2020-11-20T11:25:30Z</time>
      </trkpt>
      <trkpt lat="51.409780494868755" lon="4.385229684412479">
        <ele>-15.82</ele>
        <time>2020-11-20T11:25:38Z</time>
      </trkpt>
      <trkpt lat="51.409741938114166" lon="4.385417187586427">
        <ele>-15.880000000000001</ele>
        <time>2020-11-20T11:25:45Z</time>
      </trkpt>
      <trkpt lat="51.409666668623686" lon="4.38576134853065">
        <ele>-15.98</ele>
        <time>2020-11-20T11:26:00Z</time>
      </trkpt>
      <trkpt lat="51.40957647934556" lon="4.386140713468194">
        <ele>-16.09</ele>
        <time>2020-11-20T11:26:16Z</time>
      </trkpt>
      <trkpt lat="51.409332482144237" lon="4.387193564325571">
        <ele>-16.539999999999999</ele>
        <time>2020-11-20T11:26:59Z</time>
      </trkpt>
      <trkpt lat="51.409089071676135" lon="4.388469289988279">
        <ele>-16.789999999999999</ele>
        <time>2020-11-20T11:27:56Z</time>
      </trkpt>
      <trkpt lat="51.408995110541582" lon="4.388851840049028">
        <ele>-17.609999999999999</ele>
        <time>2020-11-20T11:28:12Z</time>
      </trkpt>
      <trkpt lat="51.408919002860785" lon="4.389189211651683">
        <ele>-17.57</ele>
        <time>2020-11-20T11:28:24Z</time>
      </trkpt>
      <trkpt lat="51.408889247104526" lon="4.389407308772206">
        <ele>-17.59</ele>
        <time>2020-11-20T11:28:33Z</time>
      </trkpt>
      <trkpt lat="51.408872818574309" lon="4.38947687856853">
        <ele>-17.59</ele>
        <time>2020-11-20T11:28:36Z</time>
      </trkpt>
      <trkpt lat="51.408842643722892" lon="4.389594057574868">
        <ele>-17.609999999999999</ele>
        <time>2020-11-20T11:28:42Z</time>
      </trkpt>
      <trkpt lat="51.408788915723562" lon="4.389919359236956">
        <ele>-18.41</ele>
        <time>2020-11-20T11:28:54Z</time>
      </trkpt>
      <trkpt lat="51.408785311505198" lon="4.389977278187871">
        <ele>-18.420000000000002</ele>
        <time>2020-11-20T11:28:57Z</time>
      </trkpt>
      <trkpt lat="51.408758740872145" lon="4.390155142173171">
        <ele>-18.43</ele>
        <time>2020-11-20T11:29:09Z</time>
      </trkpt>
      <trkpt lat="51.408732254058123" lon="4.39037055708468">
        <ele>-19.34</ele>
        <time>2020-11-20T11:29:19Z</time>
      </trkpt>
      <trkpt lat="51.408633766695857" lon="4.390822593122721">
        <ele>-19.510000000000002</ele>
        <time>2020-11-20T11:29:35Z</time>
      </trkpt>
      <trkpt lat="51.408427320420742" lon="4.391551231965423">
        <ele>-17.760000000000002</ele>
        <time>2020-11-20T11:30:16Z</time>
      </trkpt>
      <trkpt lat="51.408204445615411" lon="4.391870079562068">
        <ele>-17.199999999999999</ele>
        <time>2020-11-20T11:30:33Z</time>
      </trkpt>
      <trkpt lat="51.408005459234118" lon="4.392145676538348">
        <ele>-17.5</ele>
        <time>2020-11-20T11:30:50Z</time>
      </trkpt>
      <trkpt lat="51.407767748460174" lon="4.392380034551024">
        <ele>-16.989999999999998</ele>
        <time>2020-11-20T11:31:06Z</time>
      </trkpt>
      <trkpt lat="51.407641684636474" lon="4.392536357045174">
        <ele>-17.140000000000001</ele>
        <time>2020-11-20T11:31:12Z</time>
      </trkpt>
      <trkpt lat="51.407467843964696" lon="4.392799213528633">
        <ele>-17.420000000000002</ele>
        <time>2020-11-20T11:31:28Z</time>
      </trkpt>
      <trkpt lat="51.407349156215787" lon="4.392958385869861">
        <ele>-17.59</ele>
        <time>2020-11-20T11:31:38Z</time>
      </trkpt>
      <trkpt lat="51.407187050208449" lon="4.393147062510252">
        <ele>-17.800000000000001</ele>
        <time>2020-11-20T11:31:50Z</time>
      </trkpt>
      <trkpt lat="51.407034415751696" lon="4.393296847119927">
        <ele>-17.960000000000001</ele>
        <time>2020-11-20T11:32:04Z</time>
      </trkpt>
      <trkpt lat="51.406865939497948" lon="4.393468508496881">
        <ele>-18.07</ele>
        <time>2020-11-20T11:32:14Z</time>
      </trkpt>
      <trkpt lat="51.406688326969743" lon="4.393715355545282">
        <ele>-18.210000000000001</ele>
        <time>2020-11-20T11:32:28Z</time>
      </trkpt>
      <trkpt lat="51.406129170209169" lon="4.394362019374967">
        <ele>-18.460000000000001</ele>
        <time>2020-11-20T11:33:11Z</time>
      </trkpt>
      <trkpt lat="51.40587167814374" lon="4.394576177001">
        <ele>-18.5</ele>
        <time>2020-11-20T11:33:27Z</time>
      </trkpt>
      <trkpt lat="51.405766652897" lon="4.394666198641062">
        <ele>-20.899999999999999</ele>
        <time>2020-11-20T11:33:33Z</time>
      </trkpt>
      <trkpt lat="51.405563307926059" lon="4.39489284530282">
        <ele>-20.82</ele>
        <time>2020-11-20T11:33:54Z</time>
      </trkpt>
      <trkpt lat="51.405357699841261" lon="4.395159054547548">
        <ele>-20.93</ele>
        <time>2020-11-20T11:34:11Z</time>
      </trkpt>
      <trkpt lat="51.405041450634599" lon="4.395592734217644">
        <ele>-21.09</ele>
        <time>2020-11-20T11:34:44Z</time>
      </trkpt>
      <trkpt lat="51.40495796687901" lon="4.395698681473732">
        <ele>-21.120000000000001</ele>
        <time>2020-11-20T11:34:49Z</time>
      </trkpt>
      <trkpt lat="51.404758142307401" lon="4.395940667018294">
        <ele>-18.98</ele>
        <time>2020-11-20T11:35:02Z</time>
      </trkpt>
      <trkpt lat="51.404587319120765" lon="4.396152980625629">
        <ele>-18.300000000000001</ele>
        <time>2020-11-20T11:35:15Z</time>
      </trkpt>
      <trkpt lat="51.404096893966198" lon="4.396623792126775">
        <ele>-15.32</ele>
        <time>2020-11-20T11:35:57Z</time>
      </trkpt>
      <trkpt lat="51.403990024700761" lon="4.396799141541123">
        <ele>-18.399999999999999</ele>
        <time>2020-11-20T11:36:07Z</time>
      </trkpt>
      <trkpt lat="51.403976362198591" lon="4.39680777490139">
        <ele>-18.440000000000001</ele>
        <time>2020-11-20T11:36:08Z</time>
      </trkpt>
      <trkpt lat="51.403629519045353" lon="4.397310437634587">
        <ele>-20.120000000000001</ele>
        <time>2020-11-20T11:36:36Z</time>
      </trkpt>
      <trkpt lat="51.403425587341189" lon="4.397564409300685">
        <ele>-20.73</ele>
        <time>2020-11-20T11:36:57Z</time>
      </trkpt>
      <trkpt lat="51.40322919934988" lon="4.397772951051593">
        <ele>-21.379999999999999</ele>
        <time>2020-11-20T11:37:14Z</time>
      </trkpt>
      <trkpt lat="51.403083521872759" lon="4.397946791723371">
        <ele>-21.809999999999999</ele>
        <time>2020-11-20T11:37:27Z</time>
      </trkpt>
      <trkpt lat="51.402736427262425" lon="4.398408299311996">
        <ele>-20.219999999999999</ele>
        <time>2020-11-20T11:37:56Z</time>
      </trkpt>
      <trkpt lat="51.401985324919224" lon="4.39928119070828">
        <ele>-21.649999999999999</ele>
        <time>2020-11-20T11:38:33Z</time>
      </trkpt>
      <trkpt lat="51.401957413181663" lon="4.399307509884238">
        <ele>-21.699999999999999</ele>
        <time>2020-11-20T11:38:34Z</time>
      </trkpt>
      <trkpt lat="51.401932770386338" lon="4.399346318095923">
        <ele>-21.75</ele>
        <time>2020-11-20T11:38:35Z</time>
      </trkpt>
      <trkpt lat="51.401879293844104" lon="4.399431142956018">
        <ele>-21.82</ele>
        <time>2020-11-20T11:38:37Z</time>
      </trkpt>
      <trkpt lat="51.401856411248446" lon="4.399457965046167">
        <ele>-21.859999999999999</ele>
        <time>2020-11-20T11:38:38Z</time>
      </trkpt>
      <trkpt lat="51.401568492874503" lon="4.399834228679538">
        <ele>-22.239999999999998</ele>
        <time>2020-11-20T11:38:50Z</time>
      </trkpt>
      <trkpt lat="51.401539407670498" lon="4.399865660816431">
        <ele>-22.300000000000001</ele>
        <time>2020-11-20T11:38:51Z</time>
      </trkpt>
      <trkpt lat="51.401513423770666" lon="4.399895751848817">
        <ele>-22.329999999999998</ele>
        <time>2020-11-20T11:38:52Z</time>
      </trkpt>
      <trkpt lat="51.401490373536944" lon="4.399926513433456">
        <ele>-24.609999999999999</ele>
        <time>2020-11-20T11:38:53Z</time>
      </trkpt>
      <trkpt lat="51.401463551446795" lon="4.399957777932286">
        <ele>-24.609999999999999</ele>
        <time>2020-11-20T11:38:54Z</time>
      </trkpt>
      <trkpt lat="51.401208909228444" lon="4.400263046845794">
        <ele>-24.890000000000001</ele>
        <time>2020-11-20T11:39:04Z</time>
      </trkpt>
      <trkpt lat="51.400655703619123" lon="4.400932174175978">
        <ele>-25.109999999999999</ele>
        <time>2020-11-20T11:39:26Z</time>
      </trkpt>
      <trkpt lat="51.400622595101595" lon="4.40096796490252">
        <ele>-25.120000000000001</ele>
        <time>2020-11-20T11:39:27Z</time>
      </trkpt>
      <trkpt lat="51.400234261527658" lon="4.40135789103806">
        <ele>-24.989999999999998</ele>
        <time>2020-11-20T11:39:40Z</time>
      </trkpt>
      <trkpt lat="51.399966040626168" lon="4.401607252657414">
        <ele>-24.780000000000001</ele>
        <time>2020-11-20T11:39:50Z</time>
      </trkpt>
      <trkpt lat="51.399761606007814" lon="4.401710936799645">
        <ele>-25.379999999999999</ele>
        <time>2020-11-20T11:40:00Z</time>
      </trkpt>
      <trkpt lat="51.399747775867581" lon="4.401683695614338">
        <ele>-25.32</ele>
        <time>2020-11-20T11:40:02Z</time>
      </trkpt>
      <trkpt lat="51.399740148335695" lon="4.40166131593287">
        <ele>-25.289999999999999</ele>
        <time>2020-11-20T11:40:03Z</time>
      </trkpt>
      <trkpt lat="51.399732436984777" lon="4.401637343689799">
        <ele>-25.239999999999998</ele>
        <time>2020-11-20T11:40:04Z</time>
      </trkpt>
      <trkpt lat="51.399728748947382" lon="4.401617981493473">
        <ele>-25.210000000000001</ele>
        <time>2020-11-20T11:40:05Z</time>
      </trkpt>
      <trkpt lat="51.39957913197577" lon="4.400977520272136">
        <ele>-25.050000000000001</ele>
        <time>2020-11-20T11:40:34Z</time>
      </trkpt>
      <trkpt lat="51.399471759796143" lon="4.400619110092521">
        <ele>-24.52</ele>
        <time>2020-11-20T11:40:52Z</time>
      </trkpt>
      <trkpt lat="51.399464216083288" lon="4.400600250810385">
        <ele>-24.48</ele>
        <time>2020-11-20T11:40:53Z</time>
      </trkpt>
      <trkpt lat="51.399431610479951" lon="4.400500589981675">
        <ele>-24.350000000000001</ele>
        <time>2020-11-20T11:40:58Z</time>
      </trkpt>
      <trkpt lat="51.399426329880953" lon="4.400478377938271">
        <ele>-24.32</ele>
        <time>2020-11-20T11:40:59Z</time>
      </trkpt>
      <trkpt lat="51.399328848347068" lon="4.399782763794065">
        <ele>-23.550000000000001</ele>
        <time>2020-11-20T11:41:37Z</time>
      </trkpt>
      <trkpt lat="51.399328848347068" lon="4.399755103513598">
        <ele>-23.530000000000001</ele>
        <time>2020-11-20T11:41:38Z</time>
      </trkpt>
      <trkpt lat="51.399324908852577" lon="4.399654101580381">
        <ele>-23.489999999999998</ele>
        <time>2020-11-20T11:41:41Z</time>
      </trkpt>
      <trkpt lat="51.399297835305333" lon="4.399252105504274">
        <ele>-21.969999999999999</ele>
        <time>2020-11-20T11:42:00Z</time>
      </trkpt>
      <trkpt lat="51.399282915517688" lon="4.399192845448852">
        <ele>-21.91</ele>
        <time>2020-11-20T11:42:03Z</time>
      </trkpt>
      <trkpt lat="51.39924150891602" lon="4.398948680609465">
        <ele>-21.780000000000001</ele>
        <time>2020-11-20T11:42:14Z</time>
      </trkpt>
      <trkpt lat="51.399219715967774" lon="4.39874860458076">
        <ele>-21.66</ele>
        <time>2020-11-20T11:42:26Z</time>
      </trkpt>
      <trkpt lat="51.398846805095673" lon="4.397351844236255">
        <ele>-23.73</ele>
        <time>2020-11-20T11:42:54Z</time>
      </trkpt>
      <trkpt lat="51.398702384904027" lon="4.39697876572609">
        <ele>-23.670000000000002</ele>
        <time>2020-11-20T11:43:00Z</time>
      </trkpt>
      <trkpt lat="51.398498117923737" lon="4.396353391930461">
        <ele>-23.539999999999999</ele>
        <time>2020-11-20T11:43:11Z</time>
      </trkpt>
      <trkpt lat="51.398442462086678" lon="4.396130852401257">
        <ele>-23.530000000000001</ele>
        <time>2020-11-20T11:43:14Z</time>
      </trkpt>
      <trkpt lat="51.398425111547112" lon="4.396046195179224">
        <ele>-23.52</ele>
        <time>2020-11-20T11:43:15Z</time>
      </trkpt>
      <trkpt lat="51.398229477927089" lon="4.395357621833682">
        <ele>-23.41</ele>
        <time>2020-11-20T11:43:24Z</time>
      </trkpt>
      <trkpt lat="51.398204499855638" lon="4.395285788923502">
        <ele>-23.399999999999999</ele>
        <time>2020-11-20T11:43:25Z</time>
      </trkpt>
      <trkpt lat="51.398018002510071" lon="4.394683465361595">
        <ele>-23.27</ele>
        <time>2020-11-20T11:43:33Z</time>
      </trkpt>
      <trkpt lat="51.397991683334112" lon="4.394620349630714">
        <ele>-23.280000000000001</ele>
        <time>2020-11-20T11:43:34Z</time>
      </trkpt>
      <trkpt lat="51.397932255640626" lon="4.394475761801004">
        <ele>-24.09</ele>
        <time>2020-11-20T11:43:36Z</time>
      </trkpt>
      <trkpt lat="51.397768976166844" lon="4.39394686371088">
        <ele>-24.850000000000001</ele>
        <time>2020-11-20T11:43:42Z</time>
      </trkpt>
      <trkpt lat="51.397739807143807" lon="4.393878383561969">
        <ele>-24.84</ele>
        <time>2020-11-20T11:43:43Z</time>
      </trkpt>
      <trkpt lat="51.397497318685055" lon="4.39322023652494">
        <ele>-24.760000000000002</ele>
        <time>2020-11-20T11:43:54Z</time>
      </trkpt>
      <trkpt lat="51.397244604304433" lon="4.39236025325954">
        <ele>-24.629999999999999</ele>
        <time>2020-11-20T11:44:07Z</time>
      </trkpt>
      <trkpt lat="51.397084342315793" lon="4.391776453703642">
        <ele>-24.550000000000001</ele>
        <time>2020-11-20T11:44:17Z</time>
      </trkpt>
      <trkpt lat="51.396915949881077" lon="4.391413433477283">
        <ele>-24.489999999999998</ele>
        <time>2020-11-20T11:44:28Z</time>
      </trkpt>
      <trkpt lat="51.396835232153535" lon="4.391190055757761">
        <ele>-24.469999999999999</ele>
        <time>2020-11-20T11:44:39Z</time>
      </trkpt>
      <trkpt lat="51.396759711205959" lon="4.391030883416534">
        <ele>-24.48</ele>
        <time>2020-11-20T11:44:41Z</time>
      </trkpt>
      <trkpt lat="51.396847302094102" lon="4.390582367777824">
        <ele>-25.460000000000001</ele>
        <time>2020-11-20T11:45:38Z</time>
      </trkpt>
      <trkpt lat="51.396504398435354" lon="4.389150151982904">
        <ele>-25.02</ele>
        <time>2020-11-20T11:46:20Z</time>
      </trkpt>
      <trkpt lat="51.396474139764905" lon="4.389082845300436">
        <ele>-24.98</ele>
        <time>2020-11-20T11:46:24Z</time>
      </trkpt>
      <trkpt lat="51.396463913843036" lon="4.389059292152524">
        <ele>-24.969999999999999</ele>
        <time>2020-11-20T11:46:25Z</time>
      </trkpt>
      <trkpt lat="51.396447233855724" lon="4.389024591073394">
        <ele>-24.949999999999999</ele>
        <time>2020-11-20T11:46:27Z</time>
      </trkpt>
      <trkpt lat="51.396417561918497" lon="4.388943705707789">
        <ele>-24.890000000000001</ele>
        <time>2020-11-20T11:46:32Z</time>
      </trkpt>
      <trkpt lat="51.39634589664638" lon="4.388543805107474">
        <ele>-25.449999999999999</ele>
        <time>2020-11-20T11:46:50Z</time>
      </trkpt>
      <trkpt lat="51.396257048472762" lon="4.388224957510829">
        <ele>-25.309999999999999</ele>
        <time>2020-11-20T11:47:04Z</time>
      </trkpt>
      <trkpt lat="51.396211702376604" lon="4.388016080483794">
        <ele>-25.170000000000002</ele>
        <time>2020-11-20T11:47:17Z</time>
      </trkpt>
      <trkpt lat="51.396154621616006" lon="4.387780884280801">
        <ele>-24.960000000000001</ele>
        <time>2020-11-20T11:47:34Z</time>
      </trkpt>
      <trkpt lat="51.396144647151232" lon="4.387675859034061">
        <ele>-24.899999999999999</ele>
        <time>2020-11-20T11:47:39Z</time>
      </trkpt>
      <trkpt lat="51.39610692858696" lon="4.387483075261116">
        <ele>-24.890000000000001</ele>
        <time>2020-11-20T11:47:40Z</time>
      </trkpt>
      <trkpt lat="51.39577810652554" lon="4.386878991499543">
        <ele>-24.300000000000001</ele>
        <time>2020-11-20T11:48:22Z</time>
      </trkpt>
      <trkpt lat="51.395763773471117" lon="4.386792741715908">
        <ele>-24.25</ele>
        <time>2020-11-20T11:48:25Z</time>
      </trkpt>
      <trkpt lat="51.395769473165274" lon="4.386532064527273">
        <ele>-23.960000000000001</ele>
        <time>2020-11-20T11:48:43Z</time>
      </trkpt>
      <trkpt lat="51.39582940377295" lon="4.386257976293564">
        <ele>-23.77</ele>
        <time>2020-11-20T11:48:57Z</time>
      </trkpt>
      <trkpt lat="51.39582990668714" lon="4.386219419538975">
        <ele>-23.739999999999998</ele>
        <time>2020-11-20T11:48:59Z</time>
      </trkpt>
      <trkpt lat="51.395846419036388" lon="4.386159656569362">
        <ele>-23.690000000000001</ele>
        <time>2020-11-20T11:49:03Z</time>
      </trkpt>
      <trkpt lat="51.39588413760066" lon="4.385932423174381">
        <ele>-23.629999999999999</ele>
        <time>2020-11-20T11:49:08Z</time>
      </trkpt>
      <trkpt lat="51.395571827888489" lon="4.384971773251891">
        <ele>-23.07</ele>
        <time>2020-11-20T11:49:57Z</time>
      </trkpt>
      <trkpt lat="51.395549615845084" lon="4.384685195982456">
        <ele>-22.960000000000001</ele>
        <time>2020-11-20T11:50:10Z</time>
      </trkpt>
      <trkpt lat="51.395539809018373" lon="4.384520323947072">
        <ele>-22.91</ele>
        <time>2020-11-20T11:50:17Z</time>
      </trkpt>
      <trkpt lat="51.39553084038198" lon="4.384394427761436">
        <ele>-22.859999999999999</ele>
        <time>2020-11-20T11:50:23Z</time>
      </trkpt>
      <trkpt lat="51.395529499277472" lon="4.384372215718031">
        <ele>-22.850000000000001</ele>
        <time>2020-11-20T11:50:24Z</time>
      </trkpt>
      <trkpt lat="51.395508795976639" lon="4.384141629561782">
        <ele>-22.780000000000001</ele>
        <time>2020-11-20T11:50:34Z</time>
      </trkpt>
      <trkpt lat="51.395475352182984" lon="4.383855555206537">
        <ele>-19.239999999999998</ele>
        <time>2020-11-20T11:50:49Z</time>
      </trkpt>
      <trkpt lat="51.395365549251437" lon="4.38357861712575">
        <ele>-17.530000000000001</ele>
        <time>2020-11-20T11:51:06Z</time>
      </trkpt>
      <trkpt lat="51.39524158090353" lon="4.383241664618254">
        <ele>-17.41</ele>
        <time>2020-11-20T11:51:27Z</time>
      </trkpt>
      <trkpt lat="51.395058436319232" lon="4.382875291630626">
        <ele>-17.260000000000002</ele>
        <time>2020-11-20T11:51:47Z</time>
      </trkpt>
      <trkpt lat="51.395004959776998" lon="4.382756184786558">
        <ele>-17.219999999999999</ele>
        <time>2020-11-20T11:51:54Z</time>
      </trkpt>
      <trkpt lat="51.394975204020739" lon="4.38268393278122">
        <ele>-17.199999999999999</ele>
        <time>2020-11-20T11:51:58Z</time>
      </trkpt>
      <trkpt lat="51.394883757457137" lon="4.382494669407606">
        <ele>-17.02</ele>
        <time>2020-11-20T11:52:20Z</time>
      </trkpt>
      <trkpt lat="51.39465032145381" lon="4.381964178755879">
        <ele>-16.84</ele>
        <time>2020-11-20T11:52:49Z</time>
      </trkpt>
      <trkpt lat="51.394546385854483" lon="4.381698220968247">
        <ele>-16.789999999999999</ele>
        <time>2020-11-20T11:53:01Z</time>
      </trkpt>
      <trkpt lat="51.394440606236458" lon="4.381364034488797">
        <ele>-16.75</ele>
        <time>2020-11-20T11:53:17Z</time>
      </trkpt>
      <trkpt lat="51.394380759447813" lon="4.381160521879792">
        <ele>-20.100000000000001</ele>
        <time>2020-11-20T11:53:25Z</time>
      </trkpt>
      <trkpt lat="51.394380424171686" lon="4.381143087521195">
        <ele>-20.09</ele>
        <time>2020-11-20T11:53:26Z</time>
      </trkpt>
      <trkpt lat="51.394299622625113" lon="4.380828682333231">
        <ele>-20.050000000000001</ele>
        <time>2020-11-20T11:53:39Z</time>
      </trkpt>
      <trkpt lat="51.394236423075199" lon="4.380658445879817">
        <ele>-20.010000000000002</ele>
        <time>2020-11-20T11:53:46Z</time>
      </trkpt>
      <trkpt lat="51.394226867705584" lon="4.380635814741254">
        <ele>-20</ele>
        <time>2020-11-20T11:53:47Z</time>
      </trkpt>
      <trkpt lat="51.394219491630793" lon="4.380614440888166">
        <ele>-20</ele>
        <time>2020-11-20T11:53:48Z</time>
      </trkpt>
      <trkpt lat="51.394211109727621" lon="4.380589127540588">
        <ele>-19.989999999999998</ele>
        <time>2020-11-20T11:53:49Z</time>
      </trkpt>
      <trkpt lat="51.394205326214433" lon="4.380568508058786">
        <ele>-19.989999999999998</ele>
        <time>2020-11-20T11:53:50Z</time>
      </trkpt>
      <trkpt lat="51.394071467220783" lon="4.380172127857804">
        <ele>-19.93</ele>
        <time>2020-11-20T11:54:02Z</time>
      </trkpt>
      <trkpt lat="51.393823781982064" lon="4.37948296777904">
        <ele>-19.870000000000001</ele>
        <time>2020-11-20T11:54:12Z</time>
      </trkpt>
      <trkpt lat="51.393702328205109" lon="4.379125228151679">
        <ele>-19.829999999999998</ele>
        <time>2020-11-20T11:54:17Z</time>
      </trkpt>
      <trkpt lat="51.393677601590753" lon="4.379044342786074">
        <ele>-19.82</ele>
        <time>2020-11-20T11:54:18Z</time>
      </trkpt>
      <trkpt lat="51.393647259101272" lon="4.378963205963373">
        <ele>-19.809999999999999</ele>
        <time>2020-11-20T11:54:19Z</time>
      </trkpt>
      <trkpt lat="51.393619179725647" lon="4.378890618681908">
        <ele>-19.800000000000001</ele>
        <time>2020-11-20T11:54:20Z</time>
      </trkpt>
      <trkpt lat="51.393592106178403" lon="4.378819623962045">
        <ele>-19.789999999999999</ele>
        <time>2020-11-20T11:54:21Z</time>
      </trkpt>
      <trkpt lat="51.393313826993108" lon="4.378009764477611">
        <ele>-19.66</ele>
        <time>2020-11-20T11:54:32Z</time>
      </trkpt>
      <trkpt lat="51.393285747617483" lon="4.377946397289634">
        <ele>-19.66</ele>
        <time>2020-11-20T11:54:33Z</time>
      </trkpt>
      <trkpt lat="51.393261859193444" lon="4.377888143062592">
        <ele>-19.649999999999999</ele>
        <time>2020-11-20T11:54:34Z</time>
      </trkpt>
      <trkpt lat="51.39324065297842" lon="4.377825949341059">
        <ele>-19.629999999999999</ele>
        <time>2020-11-20T11:54:35Z</time>
      </trkpt>
      <trkpt lat="51.393221542239189" lon="4.377758642658591">
        <ele>-19.620000000000001</ele>
        <time>2020-11-20T11:54:36Z</time>
      </trkpt>
      <trkpt lat="51.393094221130013" lon="4.377358658239245">
        <ele>-19.550000000000001</ele>
        <time>2020-11-20T11:54:42Z</time>
      </trkpt>
      <trkpt lat="51.392954075708985" lon="4.377175932750106">
        <ele>-18.739999999999998</ele>
        <time>2020-11-20T11:55:47Z</time>
      </trkpt>
      <trkpt lat="51.392910992726684" lon="4.37726654112339">
        <ele>-18.649999999999999</ele>
        <time>2020-11-20T11:55:53Z</time>
      </trkpt>
      <trkpt lat="51.392898503690958" lon="4.377282885834575">
        <ele>-18.640000000000001</ele>
        <time>2020-11-20T11:55:54Z</time>
      </trkpt>
      <trkpt lat="51.392759028822184" lon="4.377559069544077">
        <ele>-18.440000000000001</ele>
        <time>2020-11-20T11:56:07Z</time>
      </trkpt>
      <trkpt lat="51.392641849815845" lon="4.377769455313683">
        <ele>-18.199999999999999</ele>
        <time>2020-11-20T11:56:19Z</time>
      </trkpt>
      <trkpt lat="51.392506649717689" lon="4.377993084490299">
        <ele>-17.949999999999999</ele>
        <time>2020-11-20T11:56:35Z</time>
      </trkpt>
      <trkpt lat="51.392482090741396" lon="4.378009010106325">
        <ele>-17.920000000000002</ele>
        <time>2020-11-20T11:56:37Z</time>
      </trkpt>
      <trkpt lat="51.392468931153417" lon="4.37802636064589">
        <ele>-17.91</ele>
        <time>2020-11-20T11:56:38Z</time>
      </trkpt>
      <trkpt lat="51.392456106841564" lon="4.378043962642551">
        <ele>-17.899999999999999</ele>
        <time>2020-11-20T11:56:39Z</time>
      </trkpt>
      <trkpt lat="51.392442779615521" lon="4.37806592322886">
        <ele>-17.870000000000001</ele>
        <time>2020-11-20T11:56:40Z</time>
      </trkpt>
      <trkpt lat="51.392428949475288" lon="4.378084866330028">
        <ele>-17.850000000000001</ele>
        <time>2020-11-20T11:56:41Z</time>
      </trkpt>
      <trkpt lat="51.392413945868611" lon="4.378101211041212">
        <ele>-17.84</ele>
        <time>2020-11-20T11:56:42Z</time>
      </trkpt>
      <trkpt lat="51.392401792109013" lon="4.378118645399809">
        <ele>-17.829999999999998</ele>
        <time>2020-11-20T11:56:43Z</time>
      </trkpt>
      <trkpt lat="51.392391314730048" lon="4.378136834129691">
        <ele>-17.809999999999999</ele>
        <time>2020-11-20T11:56:44Z</time>
      </trkpt>
      <trkpt lat="51.39225703664124" lon="4.378324840217829">
        <ele>-17.57</ele>
        <time>2020-11-20T11:56:57Z</time>
      </trkpt>
      <trkpt lat="51.391928968951106" lon="4.378824234008789">
        <ele>-17.010000000000002</ele>
        <time>2020-11-20T11:57:27Z</time>
      </trkpt>
      <trkpt lat="51.391805335879326" lon="4.37900553457439">
        <ele>-16.780000000000001</ele>
        <time>2020-11-20T11:57:40Z</time>
      </trkpt>
      <trkpt lat="51.391691258177161" lon="4.379230421036482">
        <ele>-14.26</ele>
        <time>2020-11-20T11:57:52Z</time>
      </trkpt>
      <trkpt lat="51.391619425266981" lon="4.379372242838144">
        <ele>-13.15</ele>
        <time>2020-11-20T11:58:11Z</time>
      </trkpt>
      <trkpt lat="51.391508365049958" lon="4.379510963335633">
        <ele>-12.02</ele>
        <time>2020-11-20T11:59:15Z</time>
      </trkpt>
      <trkpt lat="51.391368051990867" lon="4.379707518965006">
        <ele>-11.81</ele>
        <time>2020-11-20T11:59:29Z</time>
      </trkpt>
      <trkpt lat="51.391020454466343" lon="4.380275560542941">
        <ele>-14.35</ele>
        <time>2020-11-20T12:00:05Z</time>
      </trkpt>
      <trkpt lat="51.39081752859056" lon="4.380534645169973">
        <ele>-14.09</ele>
        <time>2020-11-20T12:00:23Z</time>
      </trkpt>
      <trkpt lat="51.390662211924791" lon="4.380768500268459">
        <ele>-13.859999999999999</ele>
        <time>2020-11-20T12:00:39Z</time>
      </trkpt>
      <trkpt lat="51.39047596603632" lon="4.38104560598731">
        <ele>-13.619999999999999</ele>
        <time>2020-11-20T12:00:56Z</time>
      </trkpt>
      <trkpt lat="51.390357278287411" lon="4.381208717823029">
        <ele>-13.449999999999999</ele>
        <time>2020-11-20T12:01:08Z</time>
      </trkpt>
      <trkpt lat="51.390335820615292" lon="4.381228582933545">
        <ele>-13.25</ele>
        <time>2020-11-20T12:01:23Z</time>
      </trkpt>
      <trkpt lat="51.390242949128151" lon="4.381369398906827">
        <ele>-10.83</ele>
        <time>2020-11-20T12:04:31Z</time>
      </trkpt>
      <trkpt lat="51.390194753184915" lon="4.381460174918175">
        <ele>-10.640000000000001</ele>
        <time>2020-11-20T12:04:53Z</time>
      </trkpt>
      <trkpt lat="51.390088303014636" lon="4.381606187671423">
        <ele>-10.449999999999999</ele>
        <time>2020-11-20T12:05:05Z</time>
      </trkpt>
      <trkpt lat="51.390079166740179" lon="4.381621358916163">
        <ele>-10.44</ele>
        <time>2020-11-20T12:05:06Z</time>
      </trkpt>
      <trkpt lat="51.389860482886434" lon="4.381885305047035">
        <ele>-11.08</ele>
        <time>2020-11-20T12:05:24Z</time>
      </trkpt>
      <trkpt lat="51.389794098213315" lon="4.381935931742191">
        <ele>-11.02</ele>
        <time>2020-11-20T12:05:29Z</time>
      </trkpt>
      <trkpt lat="51.389439040794969" lon="4.382023606449366">
        <ele>-10.630000000000001</ele>
        <time>2020-11-20T12:06:03Z</time>
      </trkpt>
      <trkpt lat="51.389414314180613" lon="4.382029054686427">
        <ele>-10.609999999999999</ele>
        <time>2020-11-20T12:06:05Z</time>
      </trkpt>
      <trkpt lat="51.38833723962307" lon="4.382310602813959">
        <ele>-7.7</ele>
        <time>2020-11-20T12:07:24Z</time>
      </trkpt>
      <trkpt lat="51.388298096135259" lon="4.382325690239668">
        <ele>-7.7</ele>
        <time>2020-11-20T12:07:27Z</time>
      </trkpt>
      <trkpt lat="51.388044795021415" lon="4.3824293743819">
        <ele>-7.77</ele>
        <time>2020-11-20T12:07:47Z</time>
      </trkpt>
      <trkpt lat="51.388028785586357" lon="4.382436666637659">
        <ele>-7.78</ele>
        <time>2020-11-20T12:07:48Z</time>
      </trkpt>
      <trkpt lat="51.387829631567001" lon="4.382482850924134">
        <ele>-7.76</ele>
        <time>2020-11-20T12:08:02Z</time>
      </trkpt>
      <trkpt lat="51.387591250240803" lon="4.382556863129139">
        <ele>-7.78</ele>
        <time>2020-11-20T12:08:16Z</time>
      </trkpt>
      <trkpt lat="51.387429730966687" lon="4.382590893656015">
        <ele>-7.77</ele>
        <time>2020-11-20T12:08:29Z</time>
      </trkpt>
      <trkpt lat="51.387150278314948" lon="4.382646214216948">
        <ele>-7.78</ele>
        <time>2020-11-20T12:08:44Z</time>
      </trkpt>
      <trkpt lat="51.386778876185417" lon="4.382762219756842">
        <ele>-7.79</ele>
        <time>2020-11-20T12:08:52Z</time>
      </trkpt>
      <trkpt lat="51.386569244787097" lon="4.382823240011931">
        <ele>-7.79</ele>
        <time>2020-11-20T12:08:56Z</time>
      </trkpt>
      <trkpt lat="51.386461118236184" lon="4.382857857272029">
        <ele>-7.8</ele>
        <time>2020-11-20T12:08:58Z</time>
      </trkpt>
      <trkpt lat="51.38640521094203" lon="4.382867412641645">
        <ele>-7.81</ele>
        <time>2020-11-20T12:08:59Z</time>
      </trkpt>
      <trkpt lat="51.386348968371749" lon="4.382878560572863">
        <ele>-7.81</ele>
        <time>2020-11-20T12:09:00Z</time>
      </trkpt>
      <trkpt lat="51.386236064136028" lon="4.382908064872026">
        <ele>-10.07</ele>
        <time>2020-11-20T12:09:02Z</time>
      </trkpt>
      <trkpt lat="51.386125003919005" lon="4.382947459816933">
        <ele>-10.06</ele>
        <time>2020-11-20T12:09:04Z</time>
      </trkpt>
      <trkpt lat="51.386030875146389" lon="4.382978724315763">
        <ele>-10.050000000000001</ele>
        <time>2020-11-20T12:09:06Z</time>
      </trkpt>
      <trkpt lat="51.385940266773105" lon="4.382984759286046">
        <ele>-10.01</ele>
        <time>2020-11-20T12:09:08Z</time>
      </trkpt>
      <trkpt lat="51.385884694755077" lon="4.382981322705746">
        <ele>-10</ele>
        <time>2020-11-20T12:09:09Z</time>
      </trkpt>
      <trkpt lat="51.385835576802492" lon="4.382983921095729">
        <ele>-9.98</ele>
        <time>2020-11-20T12:09:10Z</time>
      </trkpt>
      <trkpt lat="51.385251525789499" lon="4.3831408303231">
        <ele>-9.92</ele>
        <time>2020-11-20T12:09:17Z</time>
      </trkpt>
      <trkpt lat="51.385824680328369" lon="4.384707156568766">
        <ele>-8.800000000000001</ele>
        <time>2020-11-20T12:10:28Z</time>
      </trkpt>
      <trkpt lat="51.385894753038883" lon="4.384922152385116">
        <ele>-8.65</ele>
        <time>2020-11-20T12:10:42Z</time>
      </trkpt>
      <trkpt lat="51.386016877368093" lon="4.385251477360725">
        <ele>-8.43</ele>
        <time>2020-11-20T12:11:02Z</time>
      </trkpt>
      <trkpt lat="51.38611251488328" lon="4.385622628033161">
        <ele>-8.199999999999999</ele>
        <time>2020-11-20T12:11:19Z</time>
      </trkpt>
      <trkpt lat="51.386226508766413" lon="4.385873163118959">
        <ele>-8.08</ele>
        <time>2020-11-20T12:11:33Z</time>
      </trkpt>
      <trkpt lat="51.386305717751384" lon="4.386081788688898">
        <ele>-7.93</ele>
        <time>2020-11-20T12:11:44Z</time>
      </trkpt>
      <trkpt lat="51.386342933401465" lon="4.386215647682548">
        <ele>-7.89</ele>
        <time>2020-11-20T12:11:50Z</time>
      </trkpt>
      <trkpt lat="51.386460280045867" lon="4.386549163609743">
        <ele>-7.71</ele>
        <time>2020-11-20T12:12:07Z</time>
      </trkpt>
      <trkpt lat="51.386546278372407" lon="4.386784862726927">
        <ele>-7.6</ele>
        <time>2020-11-20T12:12:19Z</time>
      </trkpt>
      <trkpt lat="51.386574441567063" lon="4.386851415038109">
        <ele>-7.59</ele>
        <time>2020-11-20T12:12:23Z</time>
      </trkpt>
      <trkpt lat="51.386678460985422" lon="4.387181494385004">
        <ele>-6.57</ele>
        <time>2020-11-20T12:12:39Z</time>
      </trkpt>
      <trkpt lat="51.386768147349358" lon="4.38747888430953">
        <ele>-6.5</ele>
        <time>2020-11-20T12:12:54Z</time>
      </trkpt>
      <trkpt lat="51.386970821768045" lon="4.388036197051406">
        <ele>-6.3</ele>
        <time>2020-11-20T12:13:22Z</time>
      </trkpt>
      <trkpt lat="51.387074925005436" lon="4.388327552005649">
        <ele>-6.17</ele>
        <time>2020-11-20T12:13:38Z</time>
      </trkpt>
      <trkpt lat="51.3871527928859" lon="4.388519749045372">
        <ele>-6.05</ele>
        <time>2020-11-20T12:13:48Z</time>
      </trkpt>
      <trkpt lat="51.387312803417444" lon="4.38902392052114">
        <ele>-4.95</ele>
        <time>2020-11-20T12:14:15Z</time>
      </trkpt>
      <trkpt lat="51.387316826730967" lon="4.38904688693583">
        <ele>-4.97</ele>
        <time>2020-11-20T12:14:16Z</time>
      </trkpt>
      <trkpt lat="51.38738002628088" lon="4.389304127544165">
        <ele>-3.1</ele>
        <time>2020-11-20T12:14:29Z</time>
      </trkpt>
      <trkpt lat="51.387389833107591" lon="4.389348216354847">
        <ele>-3.08</ele>
        <time>2020-11-20T12:14:31Z</time>
      </trkpt>
      <trkpt lat="51.387522770091891" lon="4.38972556963563">
        <ele>-0.67</ele>
        <time>2020-11-20T12:14:45Z</time>
      </trkpt>
      <trkpt lat="51.387580269947648" lon="4.389728419482708">
        <ele>0.33</ele>
        <time>2020-11-20T12:14:58Z</time>
      </trkpt>
      <trkpt lat="51.3877347484231" lon="4.390226136893034">
        <ele>0.36</ele>
        <time>2020-11-20T12:15:14Z</time>
      </trkpt>
      <trkpt lat="51.387863913550973" lon="4.39054842106998">
        <ele>0.41</ele>
        <time>2020-11-20T12:15:30Z</time>
      </trkpt>
      <trkpt lat="51.38796835206449" lon="4.390848409384489">
        <ele>0.47</ele>
        <time>2020-11-20T12:15:44Z</time>
      </trkpt>
      <trkpt lat="51.388034904375672" lon="4.391044462099671">
        <ele>0.55</ele>
        <time>2020-11-20T12:15:53Z</time>
      </trkpt>
      <trkpt lat="51.388208325952291" lon="4.391775028780103">
        <ele>-0.37</ele>
        <time>2020-11-20T12:16:31Z</time>
      </trkpt>
      <trkpt lat="51.388261802494526" lon="4.391935626044869">
        <ele>-2.56</ele>
        <time>2020-11-20T12:16:39Z</time>
      </trkpt>
      <trkpt lat="51.388361463323236" lon="4.392299065366387">
        <ele>-2.37</ele>
        <time>2020-11-20T12:16:55Z</time>
      </trkpt>
      <trkpt lat="51.388457687571645" lon="4.392633670940995">
        <ele>-2.09</ele>
        <time>2020-11-20T12:17:23Z</time>
      </trkpt>
      <trkpt lat="51.388480821624398" lon="4.392739702016115">
        <ele>-2.08</ele>
        <time>2020-11-20T12:17:28Z</time>
      </trkpt>
      <trkpt lat="51.388593893498182" lon="4.393152426928282">
        <ele>-2.74</ele>
        <time>2020-11-20T12:17:47Z</time>
      </trkpt>
      <trkpt lat="51.38871056959033" lon="4.39351050183177">
        <ele>-2.65</ele>
        <time>2020-11-20T12:18:03Z</time>
      </trkpt>
      <trkpt lat="51.388801094144583" lon="4.393849382176995">
        <ele>-3.4</ele>
        <time>2020-11-20T12:18:19Z</time>
      </trkpt>
      <trkpt lat="51.388901425525546" lon="4.394163284450769">
        <ele>-3.29</ele>
        <time>2020-11-20T12:18:34Z</time>
      </trkpt>
      <trkpt lat="51.389000415802002" lon="4.394502667710185">
        <ele>-3.19</ele>
        <time>2020-11-20T12:18:50Z</time>
      </trkpt>
      <trkpt lat="51.389116169884801" lon="4.394862167537212">
        <ele>-3.59</ele>
        <time>2020-11-20T12:19:07Z</time>
      </trkpt>
      <trkpt lat="51.389252040535212" lon="4.39524170011282">
        <ele>-3.41</ele>
        <time>2020-11-20T12:19:25Z</time>
      </trkpt>
      <trkpt lat="51.389333344995975" lon="4.395508244633675">
        <ele>-0.9</ele>
        <time>2020-11-20T12:19:37Z</time>
      </trkpt>
      <trkpt lat="51.389500983059406" lon="4.396092211827636">
        <ele>0.1</ele>
        <time>2020-11-20T12:20:05Z</time>
      </trkpt>
      <trkpt lat="51.38950165361166" lon="4.396098079159856">
        <ele>0.12</ele>
        <time>2020-11-20T12:20:08Z</time>
      </trkpt>
      <trkpt lat="51.389525793492794" lon="4.396190280094743">
        <ele>0.14</ele>
        <time>2020-11-20T12:20:13Z</time>
      </trkpt>
      <trkpt lat="51.389640290290117" lon="4.39646327868104">
        <ele>0.18</ele>
        <time>2020-11-20T12:20:20Z</time>
      </trkpt>
      <trkpt lat="51.389664011076093" lon="4.396522706374526">
        <ele>0.19</ele>
        <time>2020-11-20T12:20:21Z</time>
      </trkpt>
      <trkpt lat="51.389809772372246" lon="4.396934090182185">
        <ele>0.24</ele>
        <time>2020-11-20T12:20:27Z</time>
      </trkpt>
      <trkpt lat="51.389835420995951" lon="4.397003827616572">
        <ele>0.26</ele>
        <time>2020-11-20T12:20:28Z</time>
      </trkpt>
      <trkpt lat="51.390190981328487" lon="4.398056594654918">
        <ele>1.52</ele>
        <time>2020-11-20T12:20:41Z</time>
      </trkpt>
      <trkpt lat="51.3902473077178" lon="4.398221299052239">
        <ele>1.52</ele>
        <time>2020-11-20T12:20:43Z</time>
      </trkpt>
      <trkpt lat="51.390277398750186" lon="4.398304531350732">
        <ele>1.48</ele>
        <time>2020-11-20T12:20:44Z</time>
      </trkpt>
      <trkpt lat="51.390640083700418" lon="4.399467101320624">
        <ele>1.49</ele>
        <time>2020-11-20T12:20:57Z</time>
      </trkpt>
      <trkpt lat="51.391042917966843" lon="4.400739055126905">
        <ele>2.51</ele>
        <time>2020-11-20T12:21:12Z</time>
      </trkpt>
      <trkpt lat="51.391191696748137" lon="4.401251105591655">
        <ele>0</ele>
        <time>2020-11-20T12:21:18Z</time>
      </trkpt>
      <trkpt lat="51.391526218503714" lon="4.402256263419986">
        <ele>-1.06</ele>
        <time>2020-11-20T12:21:31Z</time>
      </trkpt>
      <trkpt lat="51.391583299264312" lon="4.402416441589594">
        <ele>-1</ele>
        <time>2020-11-20T12:21:33Z</time>
      </trkpt>
      <trkpt lat="51.391911869868636" lon="4.40338128246367">
        <ele>-0.89</ele>
        <time>2020-11-20T12:21:45Z</time>
      </trkpt>
      <trkpt lat="51.392089566215873" lon="4.403921077027917">
        <ele>-0.89</ele>
        <time>2020-11-20T12:21:51Z</time>
      </trkpt>
      <trkpt lat="51.392143461853266" lon="4.403955610468984">
        <ele>-0.89</ele>
        <time>2020-11-20T12:21:52Z</time>
      </trkpt>
      <trkpt lat="51.392196351662278" lon="4.403998944908381">
        <ele>-0.86</ele>
        <time>2020-11-20T12:21:53Z</time>
      </trkpt>
      <trkpt lat="51.39224044047296" lon="4.404044039547443">
        <ele>-0.81</ele>
        <time>2020-11-20T12:21:54Z</time>
      </trkpt>
      <trkpt lat="51.392286457121372" lon="4.404083015397191">
        <ele>-0.8</ele>
        <time>2020-11-20T12:21:55Z</time>
      </trkpt>
      <trkpt lat="51.392757520079613" lon="4.404434552416205">
        <ele>1.63</ele>
        <time>2020-11-20T12:22:13Z</time>
      </trkpt>
      <trkpt lat="51.39292499050498" lon="4.404540248215199">
        <ele>1.67</ele>
        <time>2020-11-20T12:22:28Z</time>
      </trkpt>
      <trkpt lat="51.392996488139033" lon="4.404590120539069">
        <ele>2.95</ele>
        <time>2020-11-20T12:22:44Z</time>
      </trkpt>
      <trkpt lat="51.392994895577431" lon="4.404586348682642">
        <ele>3.06</ele>
        <time>2020-11-20T12:23:06Z</time>
      </trkpt>
      <trkpt lat="51.393160438165069" lon="4.404686260968447">
        <ele>0.57</ele>
        <time>2020-11-20T12:23:22Z</time>
      </trkpt>
      <trkpt lat="51.393172675743699" lon="4.404691960662603">
        <ele>0.59</ele>
        <time>2020-11-20T12:23:23Z</time>
      </trkpt>
      <trkpt lat="51.393284657970071" lon="4.404775025323033">
        <ele>3.26</ele>
        <time>2020-11-20T12:23:32Z</time>
      </trkpt>
      <trkpt lat="51.393479704856873" lon="4.40492682158947">
        <ele>3.36</ele>
        <time>2020-11-20T12:23:48Z</time>
      </trkpt>
      <trkpt lat="51.39369553886354" lon="4.40508222207427">
        <ele>3.44</ele>
        <time>2020-11-20T12:24:06Z</time>
      </trkpt>
      <trkpt lat="51.393852112814784" lon="4.405193282291293">
        <ele>0.68</ele>
        <time>2020-11-20T12:24:17Z</time>
      </trkpt>
      <trkpt lat="51.393880024552345" lon="4.405213566496968">
        <ele>3.15</ele>
        <time>2020-11-20T12:24:19Z</time>
      </trkpt>
      <trkpt lat="51.394001226872206" lon="4.405309204012156">
        <ele>1.34</ele>
        <time>2020-11-20T12:24:28Z</time>
      </trkpt>
      <trkpt lat="51.394253186881542" lon="4.405575161799789">
        <ele>1.4</ele>
        <time>2020-11-20T12:24:44Z</time>
      </trkpt>
      <trkpt lat="51.394383022561669" lon="4.405561666935682">
        <ele>1.45</ele>
        <time>2020-11-20T12:24:57Z</time>
      </trkpt>
      <trkpt lat="51.394555019214749" lon="4.405552111566067">
        <ele>1.49</ele>
        <time>2020-11-20T12:25:06Z</time>
      </trkpt>
      <trkpt lat="51.39457119628787" lon="4.405583795160055">
        <ele>1.5</ele>
        <time>2020-11-20T12:25:07Z</time>
      </trkpt>
      <trkpt lat="51.39473682269454" lon="4.405809184536338">
        <ele>1.6</ele>
        <time>2020-11-20T12:25:23Z</time>
      </trkpt>
      <trkpt lat="51.394743612036109" lon="4.405826618894935">
        <ele>1.59</ele>
        <time>2020-11-20T12:25:24Z</time>
      </trkpt>
      <trkpt lat="51.394810834899545" lon="4.406066760420799">
        <ele>1.68</ele>
        <time>2020-11-20T12:25:39Z</time>
      </trkpt>
      <trkpt lat="51.394854253157973" lon="4.406367084011436">
        <ele>1.82</ele>
        <time>2020-11-20T12:25:57Z</time>
      </trkpt>
      <trkpt lat="51.394967157393694" lon="4.406459536403418">
        <ele>1.9</ele>
        <time>2020-11-20T12:26:10Z</time>
      </trkpt>
      <trkpt lat="51.395146446302533" lon="4.406589707359672">
        <ele>1.98</ele>
        <time>2020-11-20T12:26:23Z</time>
      </trkpt>
      <trkpt lat="51.395224900916219" lon="4.406658438965678">
        <ele>2.04</ele>
        <time>2020-11-20T12:26:29Z</time>
      </trkpt>
      <trkpt lat="51.395283741876483" lon="4.406740330159664">
        <ele>2.09</ele>
        <time>2020-11-20T12:26:35Z</time>
      </trkpt>
      <trkpt lat="51.395291872322559" lon="4.406757093966007">
        <ele>2.1</ele>
        <time>2020-11-20T12:26:36Z</time>
      </trkpt>
      <trkpt lat="51.395373428240418" lon="4.406977957114577">
        <ele>2.18</ele>
        <time>2020-11-20T12:26:51Z</time>
      </trkpt>
      <trkpt lat="51.395364291965961" lon="4.406992122530937">
        <ele>2.19</ele>
        <time>2020-11-20T12:26:52Z</time>
      </trkpt>
      <trkpt lat="51.395356748253107" lon="4.407008048146963">
        <ele>2.2</ele>
        <time>2020-11-20T12:26:53Z</time>
      </trkpt>
      <trkpt lat="51.395337134599686" lon="4.407034451141954">
        <ele>2.22</ele>
        <time>2020-11-20T12:26:55Z</time>
      </trkpt>
      <trkpt lat="51.39532514847815" lon="4.407046185806394">
        <ele>2.22</ele>
        <time>2020-11-20T12:26:56Z</time>
      </trkpt>
      <trkpt lat="51.395177375525236" lon="4.407241148874164">
        <ele>2.33</ele>
        <time>2020-11-20T12:27:10Z</time>
      </trkpt>
      <trkpt lat="51.394991297274828" lon="4.407501239329577">
        <ele>2.41</ele>
        <time>2020-11-20T12:27:23Z</time>
      </trkpt>
      <trkpt lat="51.394969755783677" lon="4.407532420009375">
        <ele>2.42</ele>
        <time>2020-11-20T12:27:25Z</time>
      </trkpt>
      <trkpt lat="51.394572453573346" lon="4.408001806586981">
        <ele>4.37</ele>
        <time>2020-11-20T12:27:59Z</time>
      </trkpt>
      <trkpt lat="51.394455526024103" lon="4.408145220950246">
        <ele>4.49</ele>
        <time>2020-11-20T12:28:13Z</time>
      </trkpt>
      <trkpt lat="51.394356703385711" lon="4.408264746889472">
        <ele>6.86</ele>
        <time>2020-11-20T12:28:23Z</time>
      </trkpt>
      <trkpt lat="51.394184622913599" lon="4.408459290862083">
        <ele>6.93</ele>
        <time>2020-11-20T12:28:38Z</time>
      </trkpt>
      <trkpt lat="51.393990833312273" lon="4.408712256699801">
        <ele>7.12</ele>
        <time>2020-11-20T12:28:56Z</time>
      </trkpt>
      <trkpt lat="51.393814394250512" lon="4.40893211401999">
        <ele>7.25</ele>
        <time>2020-11-20T12:29:13Z</time>
      </trkpt>
      <trkpt lat="51.393636949360371" lon="4.409155575558543">
        <ele>7.41</ele>
        <time>2020-11-20T12:29:30Z</time>
      </trkpt>
      <trkpt lat="51.393492696806788" lon="4.409361351281405">
        <ele>7.52</ele>
        <time>2020-11-20T12:29:43Z</time>
      </trkpt>
      <trkpt lat="51.393478531390429" lon="4.409376522526145">
        <ele>7.53</ele>
        <time>2020-11-20T12:29:44Z</time>
      </trkpt>
      <trkpt lat="51.393298236653209" lon="4.409596379846335">
        <ele>7.65</ele>
        <time>2020-11-20T12:30:00Z</time>
      </trkpt>
      <trkpt lat="51.393135543912649" lon="4.409807519987226">
        <ele>7.78</ele>
        <time>2020-11-20T12:30:15Z</time>
      </trkpt>
      <trkpt lat="51.392928846180439" lon="4.410037100315094">
        <ele>9.57</ele>
        <time>2020-11-20T12:30:32Z</time>
      </trkpt>
      <trkpt lat="51.39275785535574" lon="4.410215299576521">
        <ele>9.630000000000001</ele>
        <time>2020-11-20T12:30:48Z</time>
      </trkpt>
      <trkpt lat="51.39262106269598" lon="4.4104063231498">
        <ele>9.77</ele>
        <time>2020-11-20T12:31:03Z</time>
      </trkpt>
      <trkpt lat="51.39256875962019" lon="4.410468768328428">
        <ele>9.800000000000001</ele>
        <time>2020-11-20T12:31:08Z</time>
      </trkpt>
      <trkpt lat="51.392474379390478" lon="4.410603968426585">
        <ele>7.27</ele>
        <time>2020-11-20T12:31:17Z</time>
      </trkpt>
      <trkpt lat="51.392440013587475" lon="4.410646548494697">
        <ele>9.710000000000001</ele>
        <time>2020-11-20T12:31:20Z</time>
      </trkpt>
      <trkpt lat="51.392355691641569" lon="4.410739587619901">
        <ele>9.73</ele>
        <time>2020-11-20T12:31:27Z</time>
      </trkpt>
      <trkpt lat="51.392338844016194" lon="4.410750400274992">
        <ele>9.73</ele>
        <time>2020-11-20T12:31:28Z</time>
      </trkpt>
      <trkpt lat="51.392326019704342" lon="4.410765906795859">
        <ele>9.73</ele>
        <time>2020-11-20T12:31:29Z</time>
      </trkpt>
      <trkpt lat="51.392141031101346" lon="4.410985847935081">
        <ele>9.859999999999999</ele>
        <time>2020-11-20T12:31:50Z</time>
      </trkpt>
      <trkpt lat="51.392000215128064" lon="4.4111592695117">
        <ele>9.949999999999999</ele>
        <time>2020-11-20T12:32:05Z</time>
      </trkpt>
      <trkpt lat="51.391831152141094" lon="4.411348197609186">
        <ele>10.07</ele>
        <time>2020-11-20T12:32:21Z</time>
      </trkpt>
      <trkpt lat="51.391790499910712" lon="4.411394549533725">
        <ele>10.15</ele>
        <time>2020-11-20T12:32:39Z</time>
      </trkpt>
      <trkpt lat="51.391407027840614" lon="4.411832336336374">
        <ele>10.289999999999999</ele>
        <time>2020-11-20T12:33:11Z</time>
      </trkpt>
      <trkpt lat="51.39139755629003" lon="4.411846669390798">
        <ele>13.289999999999999</ele>
        <time>2020-11-20T12:33:12Z</time>
      </trkpt>
      <trkpt lat="51.391210472211242" lon="4.412104999646545">
        <ele>13.359999999999999</ele>
        <time>2020-11-20T12:33:29Z</time>
      </trkpt>
      <trkpt lat="51.390982987359166" lon="4.412400545552373">
        <ele>15.380000000000001</ele>
        <time>2020-11-20T12:33:46Z</time>
      </trkpt>
      <trkpt lat="51.390801519155502" lon="4.412634400650859">
        <ele>16.219999999999999</ele>
        <time>2020-11-20T12:34:01Z</time>
      </trkpt>
      <trkpt lat="51.39063966460526" lon="4.412835482507944">
        <ele>16.260000000000002</ele>
        <time>2020-11-20T12:34:14Z</time>
      </trkpt>
      <trkpt lat="51.390474708750844" lon="4.412986859679222">
        <ele>13.93</ele>
        <time>2020-11-20T12:34:27Z</time>
      </trkpt>
      <trkpt lat="51.390463560819626" lon="4.412995241582394">
        <ele>13.93</ele>
        <time>2020-11-20T12:34:28Z</time>
      </trkpt>
      <trkpt lat="51.390248397365212" lon="4.413219373673201">
        <ele>11.960000000000001</ele>
        <time>2020-11-20T12:34:43Z</time>
      </trkpt>
      <trkpt lat="51.390085536986589" lon="4.413033965975046">
        <ele>9.6</ele>
        <time>2020-11-20T12:35:08Z</time>
      </trkpt>
      <trkpt lat="51.389931393787265" lon="4.412881918251514">
        <ele>8.44</ele>
        <time>2020-11-20T12:35:22Z</time>
      </trkpt>
      <trkpt lat="51.389861656352878" lon="4.412785861641169">
        <ele>8.43</ele>
        <time>2020-11-20T12:35:28Z</time>
      </trkpt>
      <trkpt lat="51.389663256704807" lon="4.412402892485261">
        <ele>8.380000000000001</ele>
        <time>2020-11-20T12:35:50Z</time>
      </trkpt>
      <trkpt lat="51.389512466266751" lon="4.412108603864908">
        <ele>8.32</ele>
        <time>2020-11-20T12:36:08Z</time>
      </trkpt>
      <trkpt lat="51.389041235670447" lon="4.411001857370138">
        <ele>7.87</ele>
        <time>2020-11-20T12:36:59Z</time>
      </trkpt>
      <trkpt lat="51.388937467709184" lon="4.410844026133418">
        <ele>7.77</ele>
        <time>2020-11-20T12:37:07Z</time>
      </trkpt>
      <trkpt lat="51.38889723457396" lon="4.410762805491686">
        <ele>7.73</ele>
        <time>2020-11-20T12:37:10Z</time>
      </trkpt>
      <trkpt lat="51.388877453282475" lon="4.4107361510396">
        <ele>7.72</ele>
        <time>2020-11-20T12:37:11Z</time>
      </trkpt>
      <trkpt lat="51.388864293694496" lon="4.410703293979168">
        <ele>7.71</ele>
        <time>2020-11-20T12:37:12Z</time>
      </trkpt>
      <trkpt lat="51.388851134106517" lon="4.410668425261974">
        <ele>7.7</ele>
        <time>2020-11-20T12:37:13Z</time>
      </trkpt>
      <trkpt lat="51.388837974518538" lon="4.410639675334096">
        <ele>7.69</ele>
        <time>2020-11-20T12:37:14Z</time>
      </trkpt>
      <trkpt lat="51.388769997283816" lon="4.410524675622582">
        <ele>7.64</ele>
        <time>2020-11-20T12:37:18Z</time>
      </trkpt>
      <trkpt lat="51.388570675626397" lon="4.410238936543465">
        <ele>7.53</ele>
        <time>2020-11-20T12:37:28Z</time>
      </trkpt>
      <trkpt lat="51.387391593307257" lon="4.40870052203536">
        <ele>6.99</ele>
        <time>2020-11-20T12:38:12Z</time>
      </trkpt>
      <trkpt lat="51.387320263311267" lon="4.408599771559238">
        <ele>6.95</ele>
        <time>2020-11-20T12:38:14Z</time>
      </trkpt>
      <trkpt lat="51.387291513383389" lon="4.408550234511495">
        <ele>6.93</ele>
        <time>2020-11-20T12:38:15Z</time>
      </trkpt>
      <trkpt lat="51.38691877014935" lon="4.408076656982303">
        <ele>6.71</ele>
        <time>2020-11-20T12:38:26Z</time>
      </trkpt>
      <trkpt lat="51.386644262820482" lon="4.40770567394793">
        <ele>6.49</ele>
        <time>2020-11-20T12:38:36Z</time>
      </trkpt>
      <trkpt lat="51.386337988078594" lon="4.40751020796597">
        <ele>6.31</ele>
        <time>2020-11-20T12:38:45Z</time>
      </trkpt>
      <trkpt lat="51.385932639241219" lon="4.407260343432427">
        <ele>6.11</ele>
        <time>2020-11-20T12:38:56Z</time>
      </trkpt>
      <trkpt lat="51.385881090536714" lon="4.407219272106886">
        <ele>5.09</ele>
        <time>2020-11-20T12:38:57Z</time>
      </trkpt>
      <trkpt lat="51.385770281776786" lon="4.407143667340279">
        <ele>5.06</ele>
        <time>2020-11-20T12:38:59Z</time>
      </trkpt>
      <trkpt lat="51.385167790576816" lon="4.406923893839121">
        <ele>4.93</ele>
        <time>2020-11-20T12:39:09Z</time>
      </trkpt>
      <trkpt lat="51.384732518345118" lon="4.406864466145635">
        <ele>4.09</ele>
        <time>2020-11-20T12:39:16Z</time>
      </trkpt>
      <trkpt lat="51.384674431756139" lon="4.406861029565334">
        <ele>4.09</ele>
        <time>2020-11-20T12:39:17Z</time>
      </trkpt>
      <trkpt lat="51.38461341150105" lon="4.406857257708907">
        <ele>4.08</ele>
        <time>2020-11-20T12:39:18Z</time>
      </trkpt>
      <trkpt lat="51.384549206122756" lon="4.406850133091211">
        <ele>4.08</ele>
        <time>2020-11-20T12:39:19Z</time>
      </trkpt>
      <trkpt lat="51.384490616619587" lon="4.406862119212747">
        <ele>4.07</ele>
        <time>2020-11-20T12:39:20Z</time>
      </trkpt>
      <trkpt lat="51.384431356564164" lon="4.406881565228105">
        <ele>4.07</ele>
        <time>2020-11-20T12:39:21Z</time>
      </trkpt>
      <trkpt lat="51.384148132055998" lon="4.406957672908902">
        <ele>4.07</ele>
        <time>2020-11-20T12:39:26Z</time>
      </trkpt>
      <trkpt lat="51.383550250902772" lon="4.406869495287538">
        <ele>4.12</ele>
        <time>2020-11-20T12:39:38Z</time>
      </trkpt>
      <trkpt lat="51.383358808234334" lon="4.406847786158323">
        <ele>4.14</ele>
        <time>2020-11-20T12:39:48Z</time>
      </trkpt>
      <trkpt lat="51.383201312273741" lon="4.406817443668842">
        <ele>4.17</ele>
        <time>2020-11-20T12:39:59Z</time>
      </trkpt>
      <trkpt lat="51.383186224848032" lon="4.406813252717257">
        <ele>4.17</ele>
        <time>2020-11-20T12:40:00Z</time>
      </trkpt>
      <trkpt lat="51.383171556517482" lon="4.406813755631447">
        <ele>4.17</ele>
        <time>2020-11-20T12:40:01Z</time>
      </trkpt>
      <trkpt lat="51.383158396929502" lon="4.406813504174352">
        <ele>6.8</ele>
        <time>2020-11-20T12:40:02Z</time>
      </trkpt>
      <trkpt lat="51.383144902065396" lon="4.406809480860829">
        <ele>6.8</ele>
        <time>2020-11-20T12:40:03Z</time>
      </trkpt>
      <trkpt lat="51.383094443008304" lon="4.406811492517591">
        <ele>8.19</ele>
        <time>2020-11-20T12:40:07Z</time>
      </trkpt>
      <trkpt lat="51.383080529049039" lon="4.406814426183701">
        <ele>8.19</ele>
        <time>2020-11-20T12:40:08Z</time>
      </trkpt>
      <trkpt lat="51.383066950365901" lon="4.406814761459827">
        <ele>8.199999999999999</ele>
        <time>2020-11-20T12:40:09Z</time>
      </trkpt>
      <trkpt lat="51.383021688088775" lon="4.406796237453818">
        <ele>5.93</ele>
        <time>2020-11-20T12:40:12Z</time>
      </trkpt>
      <trkpt lat="51.382839465513825" lon="4.406767319887877">
        <ele>5.95</ele>
        <time>2020-11-20T12:40:23Z</time>
      </trkpt>
      <trkpt lat="51.382821695879102" lon="4.406768325716257">
        <ele>5.96</ele>
        <time>2020-11-20T12:40:24Z</time>
      </trkpt>
      <trkpt lat="51.382621368393302" lon="4.406765140593052">
        <ele>5.99</ele>
        <time>2020-11-20T12:40:36Z</time>
      </trkpt>
      <trkpt lat="51.382395476102829" lon="4.406688362360001">
        <ele>6.02</ele>
        <time>2020-11-20T12:40:50Z</time>
      </trkpt>
      <trkpt lat="51.382329594343901" lon="4.406667491421104">
        <ele>5.17</ele>
        <time>2020-11-20T12:40:54Z</time>
      </trkpt>
      <trkpt lat="51.382313752546906" lon="4.406654918566346">
        <ele>5.15</ele>
        <time>2020-11-20T12:40:55Z</time>
      </trkpt>
      <trkpt lat="51.382297407835722" lon="4.406643602997065">
        <ele>5.15</ele>
        <time>2020-11-20T12:40:56Z</time>
      </trkpt>
      <trkpt lat="51.382125159725547" lon="4.40651292912662">
        <ele>5.18</ele>
        <time>2020-11-20T12:41:09Z</time>
      </trkpt>
      <trkpt lat="51.381982248276472" lon="4.406283348798752">
        <ele>4.11</ele>
        <time>2020-11-20T12:41:22Z</time>
      </trkpt>
      <trkpt lat="51.381937488913536" lon="4.406201709061861">
        <ele>4.09</ele>
        <time>2020-11-20T12:41:26Z</time>
      </trkpt>
      <trkpt lat="51.381743364036083" lon="4.405960813164711">
        <ele>4.09</ele>
        <time>2020-11-20T12:41:41Z</time>
      </trkpt>
      <trkpt lat="51.381439436227083" lon="4.405765933915973">
        <ele>4.04</ele>
        <time>2020-11-20T12:42:02Z</time>
      </trkpt>
      <trkpt lat="51.381423007696867" lon="4.405760150402784">
        <ele>4.05</ele>
        <time>2020-11-20T12:42:03Z</time>
      </trkpt>
      <trkpt lat="51.381407668814063" lon="4.405760318040848">
        <ele>4.04</ele>
        <time>2020-11-20T12:42:04Z</time>
      </trkpt>
      <trkpt lat="51.38139040209353" lon="4.405758557841182">
        <ele>4.05</ele>
        <time>2020-11-20T12:42:05Z</time>
      </trkpt>
      <trkpt lat="51.381372213363647" lon="4.405751097947359">
        <ele>4.05</ele>
        <time>2020-11-20T12:42:06Z</time>
      </trkpt>
      <trkpt lat="51.381246568635106" lon="4.405694017186761">
        <ele>4.05</ele>
        <time>2020-11-20T12:42:14Z</time>
      </trkpt>
      <trkpt lat="51.381234498694539" lon="4.405674068257213">
        <ele>4.03</ele>
        <time>2020-11-20T12:42:15Z</time>
      </trkpt>
      <trkpt lat="51.381219578906894" lon="4.405656717717648">
        <ele>4.03</ele>
        <time>2020-11-20T12:42:16Z</time>
      </trkpt>
      <trkpt lat="51.381204491481185" lon="4.405638612806797">
        <ele>4.03</ele>
        <time>2020-11-20T12:42:17Z</time>
      </trkpt>
      <trkpt lat="51.381196025758982" lon="4.405615730211139">
        <ele>4.03</ele>
        <time>2020-11-20T12:42:18Z</time>
      </trkpt>
      <trkpt lat="51.381186302751303" lon="4.405595613643527">
        <ele>4.01</ele>
        <time>2020-11-20T12:42:19Z</time>
      </trkpt>
      <trkpt lat="51.381180351600051" lon="4.405573988333345">
        <ele>4.01</ele>
        <time>2020-11-20T12:42:20Z</time>
      </trkpt>
      <trkpt lat="51.38117934577167" lon="4.405548758804798">
        <ele>4.01</ele>
        <time>2020-11-20T12:42:21Z</time>
      </trkpt>
      <trkpt lat="51.381178256124258" lon="4.405523277819157">
        <ele>4</ele>
        <time>2020-11-20T12:42:22Z</time>
      </trkpt>
      <trkpt lat="51.381083959713578" lon="4.405289003625512">
        <ele>3.93</ele>
        <time>2020-11-20T12:42:37Z</time>
      </trkpt>
      <trkpt lat="51.381052108481526" lon="4.40522144548595">
        <ele>3.93</ele>
        <time>2020-11-20T12:42:40Z</time>
      </trkpt>
      <trkpt lat="51.381038278341293" lon="4.405197892338038">
        <ele>3.95</ele>
        <time>2020-11-20T12:42:41Z</time>
      </trkpt>
      <trkpt lat="51.381028806790709" lon="4.405173836275935">
        <ele>3.93</ele>
        <time>2020-11-20T12:42:42Z</time>
      </trkpt>
      <trkpt lat="51.380938533693552" lon="4.404989182949066">
        <ele>3.91</ele>
        <time>2020-11-20T12:42:51Z</time>
      </trkpt>
      <trkpt lat="51.380917495116591" lon="4.404961690306664">
        <ele>3.9</ele>
        <time>2020-11-20T12:42:53Z</time>
      </trkpt>
      <trkpt lat="51.380847170948982" lon="4.404767565429211">
        <ele>3.86</ele>
        <time>2020-11-20T12:43:04Z</time>
      </trkpt>
      <trkpt lat="51.380501836538315" lon="4.403969272971153">
        <ele>3.62</ele>
        <time>2020-11-20T12:43:55Z</time>
      </trkpt>
      <trkpt lat="51.380345933139324" lon="4.403607258573175">
        <ele>3.41</ele>
        <time>2020-11-20T12:44:14Z</time>
      </trkpt>
      <trkpt lat="51.380286505445838" lon="4.403493935242295">
        <ele>2.02</ele>
        <time>2020-11-20T12:44:18Z</time>
      </trkpt>
      <trkpt lat="51.380069497972727" lon="4.402948943898082">
        <ele>1.83</ele>
        <time>2020-11-20T12:44:46Z</time>
      </trkpt>
      <trkpt lat="51.379949217662215" lon="4.402710730209947">
        <ele>1.65</ele>
        <time>2020-11-20T12:44:58Z</time>
      </trkpt>
      <trkpt lat="51.37979406863451" lon="4.402225334197283">
        <ele>1.34</ele>
        <time>2020-11-20T12:45:18Z</time>
      </trkpt>
      <trkpt lat="51.379641098901629" lon="4.401833480224013">
        <ele>1.03</ele>
        <time>2020-11-20T12:45:37Z</time>
      </trkpt>
      <trkpt lat="51.379473460838199" lon="4.401419498026371">
        <ele>0.55</ele>
        <time>2020-11-20T12:45:59Z</time>
      </trkpt>
      <trkpt lat="51.379355611279607" lon="4.401057315990329">
        <ele>0.12</ele>
        <time>2020-11-20T12:46:16Z</time>
      </trkpt>
      <trkpt lat="51.378865353763103" lon="4.399923663586378">
        <ele>-1.25</ele>
        <time>2020-11-20T12:47:08Z</time>
      </trkpt>
      <trkpt lat="51.378735098987818" lon="4.399602888152003">
        <ele>-1.79</ele>
        <time>2020-11-20T12:47:27Z</time>
      </trkpt>
      <trkpt lat="51.378599815070629" lon="4.399373894557357">
        <ele>-2.04</ele>
        <time>2020-11-20T12:47:36Z</time>
      </trkpt>
      <trkpt lat="51.378469727933407" lon="4.399073235690594">
        <ele>-2.38</ele>
        <time>2020-11-20T12:47:48Z</time>
      </trkpt>
      <trkpt lat="51.378392614424229" lon="4.39887709915638">
        <ele>-2.65</ele>
        <time>2020-11-20T12:47:58Z</time>
      </trkpt>
      <trkpt lat="51.378372414037585" lon="4.398837368935347">
        <ele>-2.73</ele>
        <time>2020-11-20T12:48:00Z</time>
      </trkpt>
      <trkpt lat="51.378359422087669" lon="4.398811887949705">
        <ele>-2.76</ele>
        <time>2020-11-20T12:48:01Z</time>
      </trkpt>
      <trkpt lat="51.378347352147102" lon="4.398786742240191">
        <ele>-2.79</ele>
        <time>2020-11-20T12:48:02Z</time>
      </trkpt>
      <trkpt lat="51.378205781802535" lon="4.398500751703978">
        <ele>-3.15</ele>
        <time>2020-11-20T12:48:16Z</time>
      </trkpt>
      <trkpt lat="51.378096984699368" lon="4.398235883563757">
        <ele>-3.47</ele>
        <time>2020-11-20T12:48:28Z</time>
      </trkpt>
      <trkpt lat="51.378061696887016" lon="4.398074029013515">
        <ele>-3.83</ele>
        <time>2020-11-20T12:48:41Z</time>
      </trkpt>
      <trkpt lat="51.377486530691385" lon="4.396640555933118">
        <ele>-5.82</ele>
        <time>2020-11-20T12:49:49Z</time>
      </trkpt>
      <trkpt lat="51.377296429127455" lon="4.396122973412275">
        <ele>-6.43</ele>
        <time>2020-11-20T12:50:09Z</time>
      </trkpt>
      <trkpt lat="51.377140693366528" lon="4.395822063088417">
        <ele>-7.76</ele>
        <time>2020-11-20T12:50:27Z</time>
      </trkpt>
      <trkpt lat="51.377011276781559" lon="4.395394250750542">
        <ele>-8.300000000000001</ele>
        <time>2020-11-20T12:50:45Z</time>
      </trkpt>
      <trkpt lat="51.37689015828073" lon="4.395022932440043">
        <ele>-8.85</ele>
        <time>2020-11-20T12:51:02Z</time>
      </trkpt>
      <trkpt lat="51.376734338700771" lon="4.394582295790315">
        <ele>-9.529999999999999</ele>
        <time>2020-11-20T12:51:25Z</time>
      </trkpt>
      <trkpt lat="51.376415994018316" lon="4.393032984808087">
        <ele>-12.32</ele>
        <time>2020-11-20T12:52:36Z</time>
      </trkpt>
      <trkpt lat="51.376315746456385" lon="4.392580948770046">
        <ele>-12.74</ele>
        <time>2020-11-20T12:52:53Z</time>
      </trkpt>
      <trkpt lat="51.376200076192617" lon="4.39210276119411">
        <ele>-13.210000000000001</ele>
        <time>2020-11-20T12:53:12Z</time>
      </trkpt>
      <trkpt lat="51.376093626022339" lon="4.391654916107655">
        <ele>-13.630000000000001</ele>
        <time>2020-11-20T12:53:31Z</time>
      </trkpt>
      <trkpt lat="51.376009471714497" lon="4.391021663323045">
        <ele>-14.25</ele>
        <time>2020-11-20T12:54:01Z</time>
      </trkpt>
      <trkpt lat="51.375972172245383" lon="4.390832567587495">
        <ele>-14.43</ele>
        <time>2020-11-20T12:54:09Z</time>
      </trkpt>
      <trkpt lat="51.375919533893466" lon="4.390514139086008">
        <ele>-14.65</ele>
        <time>2020-11-20T12:54:20Z</time>
      </trkpt>
      <trkpt lat="51.375899501144886" lon="4.390412382781506">
        <ele>-14.779999999999999</ele>
        <time>2020-11-20T12:54:27Z</time>
      </trkpt>
      <trkpt lat="51.375835714861751" lon="4.389980379492044">
        <ele>-15.08</ele>
        <time>2020-11-20T12:54:42Z</time>
      </trkpt>
      <trkpt lat="51.375802354887128" lon="4.389879712834954">
        <ele>-15.199999999999999</ele>
        <time>2020-11-20T12:54:47Z</time>
      </trkpt>
      <trkpt lat="51.375750303268433" lon="4.389581819996238">
        <ele>-15.49</ele>
        <time>2020-11-20T12:55:01Z</time>
      </trkpt>
      <trkpt lat="51.375677883625031" lon="4.388981508091092">
        <ele>-15.93</ele>
        <time>2020-11-20T12:55:26Z</time>
      </trkpt>
      <trkpt lat="51.375628178939223" lon="4.388782186433673">
        <ele>-16.050000000000001</ele>
        <time>2020-11-20T12:55:32Z</time>
      </trkpt>
      <trkpt lat="51.375533882528543" lon="4.387986660003662">
        <ele>-16.620000000000001</ele>
        <time>2020-11-20T12:56:33Z</time>
      </trkpt>
      <trkpt lat="51.375260297209024" lon="4.385659508407116">
        <ele>-18.140000000000001</ele>
        <time>2020-11-20T12:58:03Z</time>
      </trkpt>
      <trkpt lat="51.375147812068462" lon="4.38505232334137">
        <ele>-18.280000000000001</ele>
        <time>2020-11-20T12:58:19Z</time>
      </trkpt>
      <trkpt lat="51.375057119876146" lon="4.384526694193482">
        <ele>-18.359999999999999</ele>
        <time>2020-11-20T12:58:35Z</time>
      </trkpt>
      <trkpt lat="51.37501236051321" lon="4.384228549897671">
        <ele>-18.370000000000001</ele>
        <time>2020-11-20T12:58:49Z</time>
      </trkpt>
      <trkpt lat="51.374971121549606" lon="4.383948761969805">
        <ele>-18.390000000000001</ele>
        <time>2020-11-20T12:59:03Z</time>
      </trkpt>
      <trkpt lat="51.37486919760704" lon="4.383534360677004">
        <ele>-18.390000000000001</ele>
        <time>2020-11-20T12:59:16Z</time>
      </trkpt>
      <trkpt lat="51.374834664165974" lon="4.383354233577848">
        <ele>-19.149999999999999</ele>
        <time>2020-11-20T12:59:24Z</time>
      </trkpt>
      <trkpt lat="51.374675324186683" lon="4.382793148979545">
        <ele>-18.969999999999999</ele>
        <time>2020-11-20T13:00:18Z</time>
      </trkpt>
      <trkpt lat="51.37460726313293" lon="4.382696924731135">
        <ele>-18.920000000000002</ele>
        <time>2020-11-20T13:00:27Z</time>
      </trkpt>
      <trkpt lat="51.374432248994708" lon="4.382816115394235">
        <ele>-18.850000000000001</ele>
        <time>2020-11-20T13:00:43Z</time>
      </trkpt>
      <trkpt lat="51.374387321993709" lon="4.382535573095083">
        <ele>-16.23</ele>
        <time>2020-11-20T13:00:48Z</time>
      </trkpt>
      <trkpt lat="51.374263437464833" lon="4.381957389414311">
        <ele>-16.039999999999999</ele>
        <time>2020-11-20T13:01:25Z</time>
      </trkpt>
      <trkpt lat="51.374155059456825" lon="4.381501413881779">
        <ele>-15.18</ele>
        <time>2020-11-20T13:03:33Z</time>
      </trkpt>
      <trkpt lat="51.374100660905242" lon="4.38124199397862">
        <ele>-15.039999999999999</ele>
        <time>2020-11-20T13:03:48Z</time>
      </trkpt>
      <trkpt lat="51.37387041002512" lon="4.380359714850783">
        <ele>-14.16</ele>
        <time>2020-11-20T13:04:23Z</time>
      </trkpt>
      <trkpt lat="51.373857585713267" lon="4.380320403724909">
        <ele>-14.130000000000001</ele>
        <time>2020-11-20T13:04:24Z</time>
      </trkpt>
      <trkpt lat="51.373837888240814" lon="4.380273129791021">
        <ele>-14.15</ele>
        <time>2020-11-20T13:04:27Z</time>
      </trkpt>
      <trkpt lat="51.373790195211768" lon="4.38004489056766">
        <ele>-14.140000000000001</ele>
        <time>2020-11-20T13:04:34Z</time>
      </trkpt>
      <trkpt lat="51.373780891299248" lon="4.379998203366995">
        <ele>-14.15</ele>
        <time>2020-11-20T13:04:35Z</time>
      </trkpt>
      <trkpt lat="51.373665556311607" lon="4.379527643322945">
        <ele>-14.210000000000001</ele>
        <time>2020-11-20T13:04:44Z</time>
      </trkpt>
      <trkpt lat="51.373532870784402" lon="4.379076445475221">
        <ele>-14.31</ele>
        <time>2020-11-20T13:04:53Z</time>
      </trkpt>
      <trkpt lat="51.373532535508275" lon="4.379016766324639">
        <ele>-14.33</ele>
        <time>2020-11-20T13:04:54Z</time>
      </trkpt>
      <trkpt lat="51.37353278696537" lon="4.378977958112955">
        <ele>-14.359999999999999</ele>
        <time>2020-11-20T13:04:55Z</time>
      </trkpt>
      <trkpt lat="51.3735088147223" lon="4.378915596753359">
        <ele>-16.739999999999998</ele>
        <time>2020-11-20T13:04:56Z</time>
      </trkpt>
      <trkpt lat="51.373489201068878" lon="4.378884835168719">
        <ele>-16.75</ele>
        <time>2020-11-20T13:04:57Z</time>
      </trkpt>
      <trkpt lat="51.3734673243016" lon="4.378743516281247">
        <ele>-16.82</ele>
        <time>2020-11-20T13:05:00Z</time>
      </trkpt>
      <trkpt lat="51.373464893549681" lon="4.378691799938679">
        <ele>-16.850000000000001</ele>
        <time>2020-11-20T13:05:01Z</time>
      </trkpt>
      <trkpt lat="51.37345165014267" lon="4.378628516569734">
        <ele>-16.870000000000001</ele>
        <time>2020-11-20T13:05:02Z</time>
      </trkpt>
      <trkpt lat="51.373327849432826" lon="4.378235405310988">
        <ele>-17.02</ele>
        <time>2020-11-20T13:05:07Z</time>
      </trkpt>
      <trkpt lat="51.373309576883912" lon="4.37819148413837">
        <ele>-17.050000000000001</ele>
        <time>2020-11-20T13:05:08Z</time>
      </trkpt>
      <trkpt lat="51.373132383450866" lon="4.377432335168123">
        <ele>-17.59</ele>
        <time>2020-11-20T13:05:21Z</time>
      </trkpt>
      <trkpt lat="51.373111009597778" lon="4.37735547311604">
        <ele>-17.640000000000001</ele>
        <time>2020-11-20T13:05:22Z</time>
      </trkpt>
      <trkpt lat="51.373087372630835" lon="4.377299901098013">
        <ele>-17.690000000000001</ele>
        <time>2020-11-20T13:05:23Z</time>
      </trkpt>
      <trkpt lat="51.373008415102959" lon="4.376978455111384">
        <ele>-17.969999999999999</ele>
        <time>2020-11-20T13:05:28Z</time>
      </trkpt>
      <trkpt lat="51.372997267171741" lon="4.376928079873323">
        <ele>-18.02</ele>
        <time>2020-11-20T13:05:29Z</time>
      </trkpt>
      <trkpt lat="51.372984191402793" lon="4.376829173415899">
        <ele>-18.079999999999998</ele>
        <time>2020-11-20T13:05:30Z</time>
      </trkpt>
      <trkpt lat="51.372878579422832" lon="4.37637185677886">
        <ele>-19.48</ele>
        <time>2020-11-20T13:05:36Z</time>
      </trkpt>
      <trkpt lat="51.372871287167072" lon="4.376293234527111">
        <ele>-19.539999999999999</ele>
        <time>2020-11-20T13:05:37Z</time>
      </trkpt>
      <trkpt lat="51.372862653806806" lon="4.376215031370521">
        <ele>-19.609999999999999</ele>
        <time>2020-11-20T13:05:38Z</time>
      </trkpt>
      <trkpt lat="51.372870532795787" lon="4.376138923689723">
        <ele>-19.68</ele>
        <time>2020-11-20T13:05:39Z</time>
      </trkpt>
      <trkpt lat="51.372871706262231" lon="4.376068683341146">
        <ele>-19.75</ele>
        <time>2020-11-20T13:05:40Z</time>
      </trkpt>
      <trkpt lat="51.372884446755052" lon="4.375998694449663">
        <ele>-19.82</ele>
        <time>2020-11-20T13:05:41Z</time>
      </trkpt>
      <trkpt lat="51.372888889163733" lon="4.37592719681561">
        <ele>-19.899999999999999</ele>
        <time>2020-11-20T13:05:42Z</time>
      </trkpt>
      <trkpt lat="51.372899617999792" lon="4.375862572342157">
        <ele>-19.969999999999999</ele>
        <time>2020-11-20T13:05:43Z</time>
      </trkpt>
      <trkpt lat="51.372912861406803" lon="4.375740280374885">
        <ele>-20.129999999999999</ele>
        <time>2020-11-20T13:05:45Z</time>
      </trkpt>
      <trkpt lat="51.372918644919991" lon="4.375687558203936">
        <ele>-20.210000000000001</ele>
        <time>2020-11-20T13:05:46Z</time>
      </trkpt>
      <trkpt lat="51.372196124866605" lon="4.372885152697563">
        <ele>-26.100000000000001</ele>
        <time>2020-11-20T13:07:04Z</time>
      </trkpt>
      <trkpt lat="51.372326379641891" lon="4.371928609907627">
        <ele>-30.010000000000002</ele>
        <time>2020-11-20T13:07:48Z</time>
      </trkpt>
      <trkpt lat="51.372223030775785" lon="4.371655359864235">
        <ele>-30.359999999999999</ele>
        <time>2020-11-20T13:07:52Z</time>
      </trkpt>
      <trkpt lat="51.371995378285646" lon="4.370227921754122">
        <ele>-37.549999999999997</ele>
        <time>2020-11-20T13:08:44Z</time>
      </trkpt>
      <trkpt lat="51.371794296428561" lon="4.369345223531127">
        <ele>-39.670000000000002</ele>
        <time>2020-11-20T13:09:26Z</time>
      </trkpt>
      <trkpt lat="51.371761439368129" lon="4.369018999859691">
        <ele>-40.390000000000001</ele>
        <time>2020-11-20T13:09:43Z</time>
      </trkpt>
      <trkpt lat="51.371779460459948" lon="4.368895115330815">
        <ele>-40.560000000000002</ele>
        <time>2020-11-20T13:09:47Z</time>
      </trkpt>
      <trkpt lat="51.371415602043271" lon="4.36823713593185">
        <ele>-42.799999999999997</ele>
        <time>2020-11-20T13:10:44Z</time>
      </trkpt>
      <trkpt lat="51.371271517127752" lon="4.367983164265752">
        <ele>-43.340000000000003</ele>
        <time>2020-11-20T13:10:58Z</time>
      </trkpt>
      <trkpt lat="51.371109830215573" lon="4.367616372182965">
        <ele>-43.969999999999999</ele>
        <time>2020-11-20T13:11:15Z</time>
      </trkpt>
      <trkpt lat="51.369874002411962" lon="4.367803037166596">
        <ele>-48.060000000000002</ele>
        <time>2020-11-20T13:12:58Z</time>
      </trkpt>
      <trkpt lat="51.369763696566224" lon="4.367743693292141">
        <ele>-48.509999999999998</ele>
        <time>2020-11-20T13:13:10Z</time>
      </trkpt>
      <trkpt lat="51.369699910283089" lon="4.367756936699152">
        <ele>-46.039999999999999</ele>
        <time>2020-11-20T13:13:14Z</time>
      </trkpt>
      <trkpt lat="51.369597231969237" lon="4.367821058258414">
        <ele>-46.310000000000002</ele>
        <time>2020-11-20T13:13:21Z</time>
      </trkpt>
      <trkpt lat="51.369543168693781" lon="4.367845198139548">
        <ele>-50.57</ele>
        <time>2020-11-20T13:13:24Z</time>
      </trkpt>
      <trkpt lat="51.369284419342875" lon="4.367846539244056">
        <ele>-48.859999999999999</ele>
        <time>2020-11-20T13:13:46Z</time>
      </trkpt>
      <trkpt lat="51.368916118517518" lon="4.367724247276783">
        <ele>-49.140000000000001</ele>
        <time>2020-11-20T13:13:53Z</time>
      </trkpt>
      <trkpt lat="51.368655608966947" lon="4.36781058087945">
        <ele>-49.640000000000001</ele>
        <time>2020-11-20T13:14:06Z</time>
      </trkpt>
      <trkpt lat="51.366953244432807" lon="4.368824539706111">
        <ele>-54.090000000000003</ele>
        <time>2020-11-20T13:15:45Z</time>
      </trkpt>
      <trkpt lat="51.365133617073298" lon="4.37020537443459">
        <ele>-54.659999999999997</ele>
        <time>2020-11-20T13:16:35Z</time>
      </trkpt>
      <trkpt lat="51.365200923755765" lon="4.369637249037623">
        <ele>-52.810000000000002</ele>
        <time>2020-11-20T13:16:41Z</time>
      </trkpt>
      <trkpt lat="51.364828599616885" lon="4.366576010361314">
        <ele>-55.399999999999999</ele>
        <time>2020-11-20T13:17:50Z</time>
      </trkpt>
      <trkpt lat="51.36468417942524" lon="4.365896908566356">
        <ele>-55.82</ele>
        <time>2020-11-20T13:17:59Z</time>
      </trkpt>
      <trkpt lat="51.364155281335115" lon="4.36406034976244">
        <ele>-57.600000000000001</ele>
        <time>2020-11-20T13:18:31Z</time>
      </trkpt>
      <trkpt lat="51.363800475373864" lon="4.36285930685699">
        <ele>-56.990000000000002</ele>
        <time>2020-11-20T13:18:37Z</time>
      </trkpt>
      <trkpt lat="51.364505644887686" lon="4.361838139593601">
        <ele>-68.819999999999993</ele>
        <time>2020-11-20T13:20:56Z</time>
      </trkpt>
      <trkpt lat="51.362897157669067" lon="4.351239306852222">
        <ele>-64.700000000000003</ele>
        <time>2020-11-20T13:28:27Z</time>
      </trkpt>
      <trkpt lat="51.362891457974911" lon="4.351216172799468">
        <ele>-64.689999999999998</ele>
        <time>2020-11-20T13:28:28Z</time>
      </trkpt>
      <trkpt lat="51.362882740795612" lon="4.351155823096633">
        <ele>-64.670000000000002</ele>
        <time>2020-11-20T13:28:31Z</time>
      </trkpt>
      <trkpt lat="51.362760029733181" lon="4.350668163970113">
        <ele>-64.549999999999997</ele>
        <time>2020-11-20T13:28:48Z</time>
      </trkpt>
      <trkpt lat="51.362665733322501" lon="4.350231382995844">
        <ele>-64.439999999999998</ele>
        <time>2020-11-20T13:29:04Z</time>
      </trkpt>
      <trkpt lat="51.362433889880776" lon="4.349680272862315">
        <ele>-64.299999999999997</ele>
        <time>2020-11-20T13:29:22Z</time>
      </trkpt>
      <trkpt lat="51.362312017008662" lon="4.349290682002902">
        <ele>-64.069999999999993</ele>
        <time>2020-11-20T13:29:38Z</time>
      </trkpt>
      <trkpt lat="51.362232137471437" lon="4.349041488021612">
        <ele>-63.850000000000001</ele>
        <time>2020-11-20T13:29:48Z</time>
      </trkpt>
      <trkpt lat="51.362195257097483" lon="4.34895733371377">
        <ele>-63.780000000000001</ele>
        <time>2020-11-20T13:29:51Z</time>
      </trkpt>
      <trkpt lat="51.362184444442391" lon="4.348906287923455">
        <ele>-63.740000000000002</ele>
        <time>2020-11-20T13:29:53Z</time>
      </trkpt>
      <trkpt lat="51.362101463600993" lon="4.348358698189259">
        <ele>-63.210000000000001</ele>
        <time>2020-11-20T13:30:15Z</time>
      </trkpt>
      <trkpt lat="51.362060308456421" lon="4.348236573860049">
        <ele>-63.039999999999999</ele>
        <time>2020-11-20T13:30:21Z</time>
      </trkpt>
      <trkpt lat="51.362045640125871" lon="4.348044712096453">
        <ele>-62.829999999999998</ele>
        <time>2020-11-20T13:30:29Z</time>
      </trkpt>
      <trkpt lat="51.361850425601006" lon="4.347038883715868">
        <ele>-61.479999999999997</ele>
        <time>2020-11-20T13:31:19Z</time>
      </trkpt>
      <trkpt lat="51.361784124746919" lon="4.34675800614059">
        <ele>-61.25</ele>
        <time>2020-11-20T13:31:28Z</time>
      </trkpt>
      <trkpt lat="51.361737018451095" lon="4.346394315361977">
        <ele>-60.829999999999998</ele>
        <time>2020-11-20T13:31:44Z</time>
      </trkpt>
      <trkpt lat="51.36172897182405" lon="4.346309741958976">
        <ele>-60.689999999999998</ele>
        <time>2020-11-20T13:31:49Z</time>
      </trkpt>
      <trkpt lat="51.36167767457664" lon="4.346077898517251">
        <ele>-60.409999999999997</ele>
        <time>2020-11-20T13:32:00Z</time>
      </trkpt>
      <trkpt lat="51.36168546974659" lon="4.346017464995384">
        <ele>-60.340000000000003</ele>
        <time>2020-11-20T13:32:03Z</time>
      </trkpt>
      <trkpt lat="51.361454632133245" lon="4.345316486433148">
        <ele>-59.68</ele>
        <time>2020-11-20T13:32:33Z</time>
      </trkpt>
      <trkpt lat="51.361330160871148" lon="4.345089672133327">
        <ele>-59.369999999999997</ele>
        <time>2020-11-20T13:32:48Z</time>
      </trkpt>
      <trkpt lat="51.361202839761972" lon="4.34494961053133">
        <ele>-59.090000000000003</ele>
        <time>2020-11-20T13:33:03Z</time>
      </trkpt>
      <trkpt lat="51.361135030165315" lon="4.344824301078916">
        <ele>-58.969999999999999</ele>
        <time>2020-11-20T13:33:09Z</time>
      </trkpt>
      <trkpt lat="51.361030926927924" lon="4.344651717692614">
        <ele>-58.810000000000002</ele>
        <time>2020-11-20T13:33:18Z</time>
      </trkpt>
      <trkpt lat="51.360982060432434" lon="4.344597989693284">
        <ele>-58.740000000000002</ele>
        <time>2020-11-20T13:33:22Z</time>
      </trkpt>
      <trkpt lat="51.360924644395709" lon="4.344526827335358">
        <ele>-58.630000000000003</ele>
        <time>2020-11-20T13:33:27Z</time>
      </trkpt>
      <trkpt lat="51.360675618052483" lon="4.344052411615849">
        <ele>-58.140000000000001</ele>
        <time>2020-11-20T13:33:52Z</time>
      </trkpt>
      <trkpt lat="51.360650723800063" lon="4.343959791585803">
        <ele>-58.060000000000002</ele>
        <time>2020-11-20T13:33:57Z</time>
      </trkpt>
      <trkpt lat="51.360596660524607" lon="4.34386633336544">
        <ele>-57.960000000000001</ele>
        <time>2020-11-20T13:34:02Z</time>
      </trkpt>
      <trkpt lat="51.360386526212096" lon="4.343452015891671">
        <ele>-58.049999999999997</ele>
        <time>2020-11-20T13:34:21Z</time>
      </trkpt>
      <trkpt lat="51.359912529587746" lon="4.342307131737471">
        <ele>-56.020000000000003</ele>
        <time>2020-11-20T13:35:26Z</time>
      </trkpt>
      <trkpt lat="51.359683284536004" lon="4.341849815100431">
        <ele>-55.479999999999997</ele>
        <time>2020-11-20T13:35:51Z</time>
      </trkpt>
      <trkpt lat="51.359393103048205" lon="4.341237852349877">
        <ele>-54.759999999999998</ele>
        <time>2020-11-20T13:36:26Z</time>
      </trkpt>
      <trkpt lat="51.359325461089611" lon="4.34109527617693">
        <ele>-56.990000000000002</ele>
        <time>2020-11-20T13:36:36Z</time>
      </trkpt>
      <trkpt lat="51.359162265434861" lon="4.340853961184621">
        <ele>-57.460000000000001</ele>
        <time>2020-11-20T13:36:50Z</time>
      </trkpt>
      <trkpt lat="51.359142987057567" lon="4.340771567076445">
        <ele>-56.5</ele>
        <time>2020-11-20T13:36:56Z</time>
      </trkpt>
      <trkpt lat="51.359175005927682" lon="4.340678360313177">
        <ele>-56.259999999999998</ele>
        <time>2020-11-20T13:37:07Z</time>
      </trkpt>
      <trkpt lat="51.359254885464907" lon="4.340666960924864">
        <ele>-56.079999999999998</ele>
        <time>2020-11-20T13:37:18Z</time>
      </trkpt>
      <trkpt lat="51.359288999810815" lon="4.340661093592644">
        <ele>-56.060000000000002</ele>
        <time>2020-11-20T13:37:19Z</time>
      </trkpt>
      <trkpt lat="51.35930341668427" lon="4.340654890984297">
        <ele>-56.039999999999999</ele>
        <time>2020-11-20T13:37:20Z</time>
      </trkpt>
      <trkpt lat="51.359366867691278" lon="4.340633265674114">
        <ele>-55.990000000000002</ele>
        <time>2020-11-20T13:37:23Z</time>
      </trkpt>
      <trkpt lat="51.359393522143364" lon="4.34063452295959">
        <ele>-55.979999999999997</ele>
        <time>2020-11-20T13:37:24Z</time>
      </trkpt>
      <trkpt lat="51.359411962330341" lon="4.340618848800659">
        <ele>-55.960000000000001</ele>
        <time>2020-11-20T13:37:25Z</time>
      </trkpt>
      <trkpt lat="51.359436102211475" lon="4.340607114136219">
        <ele>-55.939999999999998</ele>
        <time>2020-11-20T13:37:26Z</time>
      </trkpt>
      <trkpt lat="51.35947298258543" lon="4.340600073337555">
        <ele>-55.93</ele>
        <time>2020-11-20T13:37:27Z</time>
      </trkpt>
      <trkpt lat="51.359519334509969" lon="4.340592697262764">
        <ele>-55.909999999999997</ele>
        <time>2020-11-20T13:37:28Z</time>
      </trkpt>
      <trkpt lat="51.359597453847528" lon="4.34057978913188">
        <ele>-53.57</ele>
        <time>2020-11-20T13:37:30Z</time>
      </trkpt>
      <trkpt lat="51.359896352514625" lon="4.340542070567608">
        <ele>-53.450000000000003</ele>
        <time>2020-11-20T13:37:38Z</time>
      </trkpt>
      <trkpt lat="51.360495239496231" lon="4.340368900448084">
        <ele>-57.340000000000003</ele>
        <time>2020-11-20T13:37:48Z</time>
      </trkpt>
      <trkpt lat="51.360547710210085" lon="4.340352807193995">
        <ele>-57.340000000000003</ele>
        <time>2020-11-20T13:37:49Z</time>
      </trkpt>
      <trkpt lat="51.360597917810082" lon="4.340342413634062">
        <ele>-57.32</ele>
        <time>2020-11-20T13:37:50Z</time>
      </trkpt>
      <trkpt lat="51.360664973035455" lon="4.340327242389321">
        <ele>-57.329999999999998</ele>
        <time>2020-11-20T13:37:51Z</time>
      </trkpt>
      <trkpt lat="51.360723227262497" lon="4.340309388935566">
        <ele>-57.310000000000002</ele>
        <time>2020-11-20T13:37:52Z</time>
      </trkpt>
      <trkpt lat="51.360761951655149" lon="4.340300168842077">
        <ele>-57.310000000000002</ele>
        <time>2020-11-20T13:37:53Z</time>
      </trkpt>
      <trkpt lat="51.360785169526935" lon="4.340289356186986">
        <ele>-57.310000000000002</ele>
        <time>2020-11-20T13:37:54Z</time>
      </trkpt>
      <trkpt lat="51.360827833414078" lon="4.34026806615293">
        <ele>-57.32</ele>
        <time>2020-11-20T13:37:55Z</time>
      </trkpt>
      <trkpt lat="51.360904276371002" lon="4.34023286215961">
        <ele>-57.310000000000002</ele>
        <time>2020-11-20T13:37:56Z</time>
      </trkpt>
      <trkpt lat="51.360955154523253" lon="4.340208554640412">
        <ele>-57.310000000000002</ele>
        <time>2020-11-20T13:37:57Z</time>
      </trkpt>
      <trkpt lat="51.36129017919302" lon="4.340045861899853">
        <ele>-57.259999999999998</ele>
        <time>2020-11-20T13:38:05Z</time>
      </trkpt>
      <trkpt lat="51.361331418156624" lon="4.340032367035747">
        <ele>-57.25</ele>
        <time>2020-11-20T13:38:06Z</time>
      </trkpt>
      <trkpt lat="51.361461337655783" lon="4.339997749775648">
        <ele>-57.25</ele>
        <time>2020-11-20T13:38:08Z</time>
      </trkpt>
      <trkpt lat="51.361523447558284" lon="4.339964725077152">
        <ele>-57.259999999999998</ele>
        <time>2020-11-20T13:38:09Z</time>
      </trkpt>
      <trkpt lat="51.361644063144922" lon="4.339903369545937">
        <ele>-57.25</ele>
        <time>2020-11-20T13:38:11Z</time>
      </trkpt>
      <trkpt lat="51.361778592690825" lon="4.339848384261131">
        <ele>-57.259999999999998</ele>
        <time>2020-11-20T13:38:13Z</time>
      </trkpt>
      <trkpt lat="51.361822094768286" lon="4.339822987094522">
        <ele>-54.810000000000002</ele>
        <time>2020-11-20T13:38:14Z</time>
      </trkpt>
      <trkpt lat="51.361871296539903" lon="4.339798176661134">
        <ele>-54.799999999999997</ele>
        <time>2020-11-20T13:38:15Z</time>
      </trkpt>
      <trkpt lat="51.361993001773953" lon="4.339747298508883">
        <ele>-54.810000000000002</ele>
        <time>2020-11-20T13:38:17Z</time>
      </trkpt>
      <trkpt lat="51.362051172181964" lon="4.339720057323575">
        <ele>-54.82</ele>
        <time>2020-11-20T13:38:18Z</time>
      </trkpt>
      <trkpt lat="51.362125184386969" lon="4.339695163071156">
        <ele>-53.759999999999998</ele>
        <time>2020-11-20T13:38:19Z</time>
      </trkpt>
      <trkpt lat="51.362333474680781" lon="4.339638417586684">
        <ele>-57</ele>
        <time>2020-11-20T13:38:22Z</time>
      </trkpt>
      <trkpt lat="51.362444534897804" lon="4.339619474485517">
        <ele>-52.93</ele>
        <time>2020-11-20T13:38:24Z</time>
      </trkpt>
      <trkpt lat="51.362494742497802" lon="4.339606314897537">
        <ele>-52.960000000000001</ele>
        <time>2020-11-20T13:38:25Z</time>
      </trkpt>
      <trkpt lat="51.362579567357898" lon="4.339587790891528">
        <ele>-53</ele>
        <time>2020-11-20T13:38:27Z</time>
      </trkpt>
      <trkpt lat="51.362633295357227" lon="4.339575218036771">
        <ele>-55.509999999999998</ele>
        <time>2020-11-20T13:38:28Z</time>
      </trkpt>
      <trkpt lat="51.362688783556223" lon="4.33955023996532">
        <ele>-56.340000000000003</ele>
        <time>2020-11-20T13:38:29Z</time>
      </trkpt>
      <trkpt lat="51.362746115773916" lon="4.339529536664486">
        <ele>-56.359999999999999</ele>
        <time>2020-11-20T13:38:30Z</time>
      </trkpt>
      <trkpt lat="51.362797915935516" lon="4.339515455067158">
        <ele>-56.299999999999997</ele>
        <time>2020-11-20T13:38:31Z</time>
      </trkpt>
      <trkpt lat="51.363050295040011" lon="4.339429708197713">
        <ele>-56.43</ele>
        <time>2020-11-20T13:38:36Z</time>
      </trkpt>
      <trkpt lat="51.363107291981578" lon="4.339412273839116">
        <ele>-56.43</ele>
        <time>2020-11-20T13:38:37Z</time>
      </trkpt>
      <trkpt lat="51.363167306408286" lon="4.339390313252807">
        <ele>-56.439999999999998</ele>
        <time>2020-11-20T13:38:38Z</time>
      </trkpt>
      <trkpt lat="51.363380122929811" lon="4.339303057640791">
        <ele>-56.460000000000001</ele>
        <time>2020-11-20T13:38:42Z</time>
      </trkpt>
      <trkpt lat="51.363431420177221" lon="4.339272631332278">
        <ele>-56.469999999999999</ele>
        <time>2020-11-20T13:38:43Z</time>
      </trkpt>
      <trkpt lat="51.363477604463696" lon="4.339255364611745">
        <ele>-56.469999999999999</ele>
        <time>2020-11-20T13:38:44Z</time>
      </trkpt>
      <trkpt lat="51.363823274150491" lon="4.339194595813751">
        <ele>-56.530000000000001</ele>
        <time>2020-11-20T13:38:55Z</time>
      </trkpt>
      <trkpt lat="51.364057129248977" lon="4.339112788438797">
        <ele>-56.700000000000003</ele>
        <time>2020-11-20T13:39:05Z</time>
      </trkpt>
      <trkpt lat="51.364281512796879" lon="4.339021509513259">
        <ele>-56.850000000000001</ele>
        <time>2020-11-20T13:39:16Z</time>
      </trkpt>
      <trkpt lat="51.364466501399875" lon="4.338930733501911">
        <ele>-56.969999999999999</ele>
        <time>2020-11-20T13:39:26Z</time>
      </trkpt>
      <trkpt lat="51.364656435325742" lon="4.338887901976705">
        <ele>-57.030000000000001</ele>
        <time>2020-11-20T13:39:37Z</time>
      </trkpt>
      <trkpt lat="51.364698596298695" lon="4.338872227817774">
        <ele>-57.049999999999997</ele>
        <time>2020-11-20T13:39:40Z</time>
      </trkpt>
      <trkpt lat="51.364713767543435" lon="4.338869545608759">
        <ele>-57.060000000000002</ele>
        <time>2020-11-20T13:39:41Z</time>
      </trkpt>
      <trkpt lat="51.365057425573468" lon="4.338756892830133">
        <ele>-57.100000000000001</ele>
        <time>2020-11-20T13:40:00Z</time>
      </trkpt>
      <trkpt lat="51.365317599847913" lon="4.33869369328022">
        <ele>-57.079999999999998</ele>
        <time>2020-11-20T13:40:18Z</time>
      </trkpt>
      <trkpt lat="51.365365041419864" lon="4.338673492893577">
        <ele>-54.810000000000002</ele>
        <time>2020-11-20T13:40:23Z</time>
      </trkpt>
      <trkpt lat="51.365542151033878" lon="4.338620016351342">
        <ele>-54.780000000000001</ele>
        <time>2020-11-20T13:40:35Z</time>
      </trkpt>
      <trkpt lat="51.365716243162751" lon="4.338553296402097">
        <ele>-54.770000000000003</ele>
        <time>2020-11-20T13:40:46Z</time>
      </trkpt>
      <trkpt lat="51.365814227610826" lon="4.338516751304269">
        <ele>-54.740000000000002</ele>
        <time>2020-11-20T13:40:52Z</time>
      </trkpt>
      <trkpt lat="51.365828476846218" lon="4.338515074923635">
        <ele>-54.729999999999997</ele>
        <time>2020-11-20T13:40:53Z</time>
      </trkpt>
      <trkpt lat="51.365846497938037" lon="4.338506441563368">
        <ele>-54.729999999999997</ele>
        <time>2020-11-20T13:40:54Z</time>
      </trkpt>
      <trkpt lat="51.365866949781775" lon="4.338501412421465">
        <ele>-54.729999999999997</ele>
        <time>2020-11-20T13:40:55Z</time>
      </trkpt>
      <trkpt lat="51.365890000015497" lon="4.338495628908277">
        <ele>-54.719999999999999</ele>
        <time>2020-11-20T13:40:56Z</time>
      </trkpt>
      <trkpt lat="51.365919839590788" lon="4.338486660271883">
        <ele>-54.729999999999997</ele>
        <time>2020-11-20T13:40:57Z</time>
      </trkpt>
      <trkpt lat="51.365938112139702" lon="4.338482636958361">
        <ele>-54.729999999999997</ele>
        <time>2020-11-20T13:40:58Z</time>
      </trkpt>
      <trkpt lat="51.366078006103635" lon="4.338424298912287">
        <ele>-54.670000000000002</ele>
        <time>2020-11-20T13:41:08Z</time>
      </trkpt>
      <trkpt lat="51.366315800696611" lon="4.338345844298601">
        <ele>-54.549999999999997</ele>
        <time>2020-11-20T13:41:25Z</time>
      </trkpt>
      <trkpt lat="51.366354944184422" lon="4.338331259787083">
        <ele>-54.509999999999998</ele>
        <time>2020-11-20T13:41:28Z</time>
      </trkpt>
      <trkpt lat="51.366588631644845" lon="4.338266216218472">
        <ele>-54.359999999999999</ele>
        <time>2020-11-20T13:41:42Z</time>
      </trkpt>
      <trkpt lat="51.366895157843828" lon="4.338192204013467">
        <ele>-54.119999999999997</ele>
        <time>2020-11-20T13:42:02Z</time>
      </trkpt>
      <trkpt lat="51.367192463949323" lon="4.338091034442186">
        <ele>-53.850000000000001</ele>
        <time>2020-11-20T13:42:22Z</time>
      </trkpt>
      <trkpt lat="51.367511311545968" lon="4.33797343634069">
        <ele>-53.649999999999999</ele>
        <time>2020-11-20T13:42:35Z</time>
      </trkpt>
      <trkpt lat="51.367565710097551" lon="4.337953822687268">
        <ele>-53.539999999999999</ele>
        <time>2020-11-20T13:42:40Z</time>
      </trkpt>
      <trkpt lat="51.36758079752326" lon="4.337951308116317">
        <ele>-53.520000000000003</ele>
        <time>2020-11-20T13:42:41Z</time>
      </trkpt>
      <trkpt lat="51.367666712030768" lon="4.337913505733013">
        <ele>-53.340000000000003</ele>
        <time>2020-11-20T13:42:50Z</time>
      </trkpt>
      <trkpt lat="51.367728570476174" lon="4.337871847674251">
        <ele>-53.259999999999998</ele>
        <time>2020-11-20T13:42:54Z</time>
      </trkpt>
      <trkpt lat="51.367942560464144" lon="4.337755925953388">
        <ele>-51.939999999999998</ele>
        <time>2020-11-20T13:43:05Z</time>
      </trkpt>
      <trkpt lat="51.368092345073819" lon="4.337685853242874">
        <ele>-51.729999999999997</ele>
        <time>2020-11-20T13:43:14Z</time>
      </trkpt>
      <trkpt lat="51.368115562945604" lon="4.337675124406815">
        <ele>-51.729999999999997</ele>
        <time>2020-11-20T13:43:15Z</time>
      </trkpt>
      <trkpt lat="51.368130231276155" lon="4.337672526016831">
        <ele>-51.689999999999998</ele>
        <time>2020-11-20T13:43:16Z</time>
      </trkpt>
      <trkpt lat="51.368293762207031" lon="4.337596418336034">
        <ele>-51.619999999999997</ele>
        <time>2020-11-20T13:43:20Z</time>
      </trkpt>
      <trkpt lat="51.368308514356613" lon="4.337560879066587">
        <ele>-51.549999999999997</ele>
        <time>2020-11-20T13:43:22Z</time>
      </trkpt>
      <trkpt lat="51.368311950936913" lon="4.337539169937372">
        <ele>-51.509999999999998</ele>
        <time>2020-11-20T13:43:23Z</time>
      </trkpt>
      <trkpt lat="51.368318656459451" lon="4.337519221007824">
        <ele>-51.490000000000002</ele>
        <time>2020-11-20T13:43:24Z</time>
      </trkpt>
      <trkpt lat="51.368324859067798" lon="4.337502624839544">
        <ele>-51.460000000000001</ele>
        <time>2020-11-20T13:43:25Z</time>
      </trkpt>
      <trkpt lat="51.368328295648098" lon="4.337483262643218">
        <ele>-51.43</ele>
        <time>2020-11-20T13:43:26Z</time>
      </trkpt>
      <trkpt lat="51.368329720571637" lon="4.337462475523353">
        <ele>-51.409999999999997</ele>
        <time>2020-11-20T13:43:27Z</time>
      </trkpt>
      <trkpt lat="51.368331145495176" lon="4.336176188662648">
        <ele>-50.090000000000003</ele>
        <time>2020-11-20T13:44:28Z</time>
      </trkpt>
      <trkpt lat="51.36833961121738" lon="4.336087759584189">
        <ele>-50.060000000000002</ele>
        <time>2020-11-20T13:44:31Z</time>
      </trkpt>
      <trkpt lat="51.368328798562288" lon="4.336058171465993">
        <ele>-50.049999999999997</ele>
        <time>2020-11-20T13:44:32Z</time>
      </trkpt>
      <trkpt lat="51.368324020877481" lon="4.336023554205895">
        <ele>-50.030000000000001</ele>
        <time>2020-11-20T13:44:33Z</time>
      </trkpt>
      <trkpt lat="51.368331061676145" lon="4.335594400763512">
        <ele>-49.780000000000001</ele>
        <time>2020-11-20T13:44:52Z</time>
      </trkpt>
      <trkpt lat="51.368345813825727" lon="4.335436401888728">
        <ele>-52.079999999999998</ele>
        <time>2020-11-20T13:45:00Z</time>
      </trkpt>
      <trkpt lat="51.368388393893838" lon="4.33507489040494">
        <ele>-51.950000000000003</ele>
        <time>2020-11-20T13:45:17Z</time>
      </trkpt>
      <trkpt lat="51.368723753839731" lon="4.331773091107607">
        <ele>-56.859999999999999</ele>
        <time>2020-11-20T13:47:45Z</time>
      </trkpt>
      <trkpt lat="51.368683353066444" lon="4.331520376726985">
        <ele>-53.909999999999997</ele>
        <time>2020-11-20T13:47:50Z</time>
      </trkpt>
      <trkpt lat="51.368598025292158" lon="4.330841610208154">
        <ele>-54.009999999999998</ele>
        <time>2020-11-20T13:47:59Z</time>
      </trkpt>
      <trkpt lat="51.369599662721157" lon="4.331036573275924">
        <ele>-113.73</ele>
        <time>2020-11-20T13:48:04Z</time>
      </trkpt>
    </trkseg>
  </trk>

</gpx>